<?xml version="1.0" encoding="UTF-8" standalone="no" ?>
<gpx xmlns="http://www.topografix.com/GPX/1/1" xmlns:xsi="http://www.w3.org/2001/XMLSchema-instance" xsi:schemaLocation="http://www.topografix.com/GPX/1/1 http://www.topografix.com/GPX/1/1/gpx.xsd" version="1.1" creator="VisuGPX - https://www.visugpx.com">
  <metadata>
    <name>Boucle Bassia Castillon Berdaoulou</name>
    <desc><![CDATA[grp_trc:]]></desc>
  </metadata>
  <trk>
    <name><![CDATA[Boucle Bassia,Castillon, Cap de Paou, Berdaoulou, retour par le bois de la Coume d'Asque 28 nov. 2024]]></name>
    <cmt><![CDATA[06:35:25]]></cmt>
    <desc><![CDATA[comment ...]]></desc>
    <trkseg>
      <trkpt lat="42.96301" lon="0.30937">
        <ele>1423</ele>
        <time>2024-11-28T05:35:24Z</time>
      </trkpt>
      <trkpt lat="42.96299" lon="0.30935">
        <ele>1422</ele>
        <time>2024-11-28T05:35:26Z</time>
      </trkpt>
      <trkpt lat="42.96302" lon="0.30921">
        <ele>1425</ele>
        <time>2024-11-28T05:36:38Z</time>
      </trkpt>
      <trkpt lat="42.96311" lon="0.30916">
        <ele>1424</ele>
        <time>2024-11-28T05:37:08Z</time>
      </trkpt>
      <trkpt lat="42.96319" lon="0.30921">
        <ele>1422</ele>
        <time>2024-11-28T05:37:20Z</time>
      </trkpt>
      <trkpt lat="42.96327" lon="0.30928">
        <ele>1421</ele>
        <time>2024-11-28T05:37:38Z</time>
      </trkpt>
      <trkpt lat="42.96333" lon="0.30939">
        <ele>1422</ele>
        <time>2024-11-28T05:37:48Z</time>
      </trkpt>
      <trkpt lat="42.96341" lon="0.30946">
        <ele>1425</ele>
        <time>2024-11-28T05:38:28Z</time>
      </trkpt>
      <trkpt lat="42.9635" lon="0.30948">
        <ele>1426</ele>
        <time>2024-11-28T05:38:38Z</time>
      </trkpt>
      <trkpt lat="42.96365" lon="0.30968">
        <ele>1428</ele>
        <time>2024-11-28T05:39:00Z</time>
      </trkpt>
      <trkpt lat="42.96371" lon="0.30978">
        <ele>1429</ele>
        <time>2024-11-28T05:39:09Z</time>
      </trkpt>
      <trkpt lat="42.96383" lon="0.30985">
        <ele>1432</ele>
        <time>2024-11-28T05:39:24Z</time>
      </trkpt>
      <trkpt lat="42.9639" lon="0.30989">
        <ele>1433</ele>
        <time>2024-11-28T05:39:32Z</time>
      </trkpt>
      <trkpt lat="42.96393" lon="0.30991">
        <ele>1433</ele>
        <time>2024-11-28T05:39:36Z</time>
      </trkpt>
      <trkpt lat="42.96396" lon="0.30995">
        <ele>1434</ele>
        <time>2024-11-28T05:39:40Z</time>
      </trkpt>
      <trkpt lat="42.964" lon="0.30997">
        <ele>1434</ele>
        <time>2024-11-28T05:39:44Z</time>
      </trkpt>
      <trkpt lat="42.96404" lon="0.30999">
        <ele>1434</ele>
        <time>2024-11-28T05:39:48Z</time>
      </trkpt>
      <trkpt lat="42.96408" lon="0.31001">
        <ele>1435</ele>
        <time>2024-11-28T05:39:52Z</time>
      </trkpt>
      <trkpt lat="42.96413" lon="0.31004">
        <ele>1436</ele>
        <time>2024-11-28T05:39:58Z</time>
      </trkpt>
      <trkpt lat="42.96431" lon="0.31012">
        <ele>1438</ele>
        <time>2024-11-28T05:40:18Z</time>
      </trkpt>
      <trkpt lat="42.9644" lon="0.31016">
        <ele>1440</ele>
        <time>2024-11-28T05:40:28Z</time>
      </trkpt>
      <trkpt lat="42.9645" lon="0.31019">
        <ele>1442</ele>
        <time>2024-11-28T05:40:40Z</time>
      </trkpt>
      <trkpt lat="42.96459" lon="0.3102">
        <ele>1445</ele>
        <time>2024-11-28T05:40:49Z</time>
      </trkpt>
      <trkpt lat="42.96463" lon="0.31023">
        <ele>1447</ele>
        <time>2024-11-28T05:40:57Z</time>
      </trkpt>
      <trkpt lat="42.96475" lon="0.31024">
        <ele>1450</ele>
        <time>2024-11-28T05:41:09Z</time>
      </trkpt>
      <trkpt lat="42.96477" lon="0.31019">
        <ele>1450</ele>
        <time>2024-11-28T05:41:13Z</time>
      </trkpt>
      <trkpt lat="42.96478" lon="0.31013">
        <ele>1450</ele>
        <time>2024-11-28T05:41:17Z</time>
      </trkpt>
      <trkpt lat="42.96477" lon="0.31008">
        <ele>1450</ele>
        <time>2024-11-28T05:41:21Z</time>
      </trkpt>
      <trkpt lat="42.96476" lon="0.31003">
        <ele>1451</ele>
        <time>2024-11-28T05:41:25Z</time>
      </trkpt>
      <trkpt lat="42.96477" lon="0.30999">
        <ele>1451</ele>
        <time>2024-11-28T05:41:29Z</time>
      </trkpt>
      <trkpt lat="42.96479" lon="0.30994">
        <ele>1453</ele>
        <time>2024-11-28T05:42:13Z</time>
      </trkpt>
      <trkpt lat="42.96482" lon="0.30988">
        <ele>1455</ele>
        <time>2024-11-28T05:42:19Z</time>
      </trkpt>
      <trkpt lat="42.96483" lon="0.30981">
        <ele>1455</ele>
        <time>2024-11-28T05:42:23Z</time>
      </trkpt>
      <trkpt lat="42.96486" lon="0.30978">
        <ele>1457</ele>
        <time>2024-11-28T05:42:27Z</time>
      </trkpt>
      <trkpt lat="42.96488" lon="0.30974">
        <ele>1457</ele>
        <time>2024-11-28T05:42:31Z</time>
      </trkpt>
      <trkpt lat="42.9649" lon="0.30969">
        <ele>1458</ele>
        <time>2024-11-28T05:42:37Z</time>
      </trkpt>
      <trkpt lat="42.96494" lon="0.30965">
        <ele>1459</ele>
        <time>2024-11-28T05:42:41Z</time>
      </trkpt>
      <trkpt lat="42.96504" lon="0.30956">
        <ele>1462</ele>
        <time>2024-11-28T05:42:55Z</time>
      </trkpt>
      <trkpt lat="42.96507" lon="0.3095">
        <ele>1463</ele>
        <time>2024-11-28T05:42:59Z</time>
      </trkpt>
      <trkpt lat="42.96511" lon="0.30946">
        <ele>1465</ele>
        <time>2024-11-28T05:43:05Z</time>
      </trkpt>
      <trkpt lat="42.96521" lon="0.30941">
        <ele>1466</ele>
        <time>2024-11-28T05:43:53Z</time>
      </trkpt>
      <trkpt lat="42.96538" lon="0.3093">
        <ele>1468</ele>
        <time>2024-11-28T05:44:29Z</time>
      </trkpt>
      <trkpt lat="42.96562" lon="0.30908">
        <ele>1472</ele>
        <time>2024-11-28T05:45:01Z</time>
      </trkpt>
      <trkpt lat="42.96572" lon="0.30902">
        <ele>1472</ele>
        <time>2024-11-28T05:45:11Z</time>
      </trkpt>
      <trkpt lat="42.96592" lon="0.30896">
        <ele>1476</ele>
        <time>2024-11-28T05:45:43Z</time>
      </trkpt>
      <trkpt lat="42.96611" lon="0.30887">
        <ele>1477</ele>
        <time>2024-11-28T05:45:59Z</time>
      </trkpt>
      <trkpt lat="42.9662" lon="0.30885">
        <ele>1477</ele>
        <time>2024-11-28T05:46:07Z</time>
      </trkpt>
      <trkpt lat="42.96648" lon="0.3087">
        <ele>1478</ele>
        <time>2024-11-28T05:46:33Z</time>
      </trkpt>
      <trkpt lat="42.96656" lon="0.30864">
        <ele>1477</ele>
        <time>2024-11-28T05:47:01Z</time>
      </trkpt>
      <trkpt lat="42.96665" lon="0.3086">
        <ele>1479</ele>
        <time>2024-11-28T05:47:11Z</time>
      </trkpt>
      <trkpt lat="42.96682" lon="0.30846">
        <ele>1481</ele>
        <time>2024-11-28T05:47:27Z</time>
      </trkpt>
      <trkpt lat="42.96701" lon="0.30833">
        <ele>1481</ele>
        <time>2024-11-28T05:47:47Z</time>
      </trkpt>
      <trkpt lat="42.96707" lon="0.30822">
        <ele>1478</ele>
        <time>2024-11-28T05:48:01Z</time>
      </trkpt>
      <trkpt lat="42.96719" lon="0.30801">
        <ele>1479</ele>
        <time>2024-11-28T05:48:19Z</time>
      </trkpt>
      <trkpt lat="42.96731" lon="0.30779">
        <ele>1486</ele>
        <time>2024-11-28T05:48:41Z</time>
      </trkpt>
      <trkpt lat="42.9675" lon="0.30765">
        <ele>1488</ele>
        <time>2024-11-28T05:49:01Z</time>
      </trkpt>
      <trkpt lat="42.96759" lon="0.3076">
        <ele>1492</ele>
        <time>2024-11-28T05:50:17Z</time>
      </trkpt>
      <trkpt lat="42.96764" lon="0.30761">
        <ele>1491</ele>
        <time>2024-11-28T05:50:19Z</time>
      </trkpt>
      <trkpt lat="42.96774" lon="0.30757">
        <ele>1492</ele>
        <time>2024-11-28T05:50:27Z</time>
      </trkpt>
      <trkpt lat="42.96785" lon="0.30749">
        <ele>1496</ele>
        <time>2024-11-28T05:50:35Z</time>
      </trkpt>
      <trkpt lat="42.96794" lon="0.30748">
        <ele>1497</ele>
        <time>2024-11-28T05:50:41Z</time>
      </trkpt>
      <trkpt lat="42.96827" lon="0.30742">
        <ele>1497</ele>
        <time>2024-11-28T05:51:09Z</time>
      </trkpt>
      <trkpt lat="42.96836" lon="0.30735">
        <ele>1498</ele>
        <time>2024-11-28T05:51:17Z</time>
      </trkpt>
      <trkpt lat="42.96854" lon="0.30724">
        <ele>1500</ele>
        <time>2024-11-28T05:51:35Z</time>
      </trkpt>
      <trkpt lat="42.96864" lon="0.30719">
        <ele>1500</ele>
        <time>2024-11-28T05:51:43Z</time>
      </trkpt>
      <trkpt lat="42.96873" lon="0.30716">
        <ele>1496</ele>
        <time>2024-11-28T05:51:53Z</time>
      </trkpt>
      <trkpt lat="42.96881" lon="0.30704">
        <ele>1496</ele>
        <time>2024-11-28T05:52:03Z</time>
      </trkpt>
      <trkpt lat="42.9691" lon="0.30692">
        <ele>1501</ele>
        <time>2024-11-28T05:52:33Z</time>
      </trkpt>
      <trkpt lat="42.96917" lon="0.30686">
        <ele>1505</ele>
        <time>2024-11-28T05:52:46Z</time>
      </trkpt>
      <trkpt lat="42.96919" lon="0.3068">
        <ele>1509</ele>
        <time>2024-11-28T05:53:19Z</time>
      </trkpt>
      <trkpt lat="42.96923" lon="0.30676">
        <ele>1512</ele>
        <time>2024-11-28T05:53:21Z</time>
      </trkpt>
      <trkpt lat="42.96928" lon="0.30678">
        <ele>1518</ele>
        <time>2024-11-28T05:53:41Z</time>
      </trkpt>
      <trkpt lat="42.96933" lon="0.30677">
        <ele>1521</ele>
        <time>2024-11-28T05:53:47Z</time>
      </trkpt>
      <trkpt lat="42.96953" lon="0.30674">
        <ele>1521</ele>
        <time>2024-11-28T05:54:23Z</time>
      </trkpt>
      <trkpt lat="42.96961" lon="0.30672">
        <ele>1523</ele>
        <time>2024-11-28T05:54:37Z</time>
      </trkpt>
      <trkpt lat="42.96971" lon="0.30673">
        <ele>1529</ele>
        <time>2024-11-28T05:54:57Z</time>
      </trkpt>
      <trkpt lat="42.96979" lon="0.30667">
        <ele>1532</ele>
        <time>2024-11-28T05:55:15Z</time>
      </trkpt>
      <trkpt lat="42.96985" lon="0.30677">
        <ele>1535</ele>
        <time>2024-11-28T05:55:29Z</time>
      </trkpt>
      <trkpt lat="42.96994" lon="0.30674">
        <ele>1537</ele>
        <time>2024-11-28T05:55:45Z</time>
      </trkpt>
      <trkpt lat="42.97003" lon="0.30677">
        <ele>1538</ele>
        <time>2024-11-28T05:56:01Z</time>
      </trkpt>
      <trkpt lat="42.97012" lon="0.30677">
        <ele>1542</ele>
        <time>2024-11-28T05:56:17Z</time>
      </trkpt>
      <trkpt lat="42.97023" lon="0.30677">
        <ele>1543</ele>
        <time>2024-11-28T05:56:31Z</time>
      </trkpt>
      <trkpt lat="42.97045" lon="0.30673">
        <ele>1556</ele>
        <time>2024-11-28T05:57:09Z</time>
      </trkpt>
      <trkpt lat="42.97053" lon="0.30678">
        <ele>1557</ele>
        <time>2024-11-28T05:57:27Z</time>
      </trkpt>
      <trkpt lat="42.97063" lon="0.30676">
        <ele>1563</ele>
        <time>2024-11-28T05:57:49Z</time>
      </trkpt>
      <trkpt lat="42.97072" lon="0.30681">
        <ele>1565</ele>
        <time>2024-11-28T05:58:05Z</time>
      </trkpt>
      <trkpt lat="42.97082" lon="0.30682">
        <ele>1569</ele>
        <time>2024-11-28T05:58:23Z</time>
      </trkpt>
      <trkpt lat="42.97091" lon="0.30683">
        <ele>1570</ele>
        <time>2024-11-28T05:58:39Z</time>
      </trkpt>
      <trkpt lat="42.9711" lon="0.30677">
        <ele>1578</ele>
        <time>2024-11-28T05:59:19Z</time>
      </trkpt>
      <trkpt lat="42.97128" lon="0.30673">
        <ele>1578</ele>
        <time>2024-11-28T05:59:47Z</time>
      </trkpt>
      <trkpt lat="42.97137" lon="0.30681">
        <ele>1577</ele>
        <time>2024-11-28T06:00:03Z</time>
      </trkpt>
      <trkpt lat="42.97147" lon="0.3068">
        <ele>1578</ele>
        <time>2024-11-28T06:00:51Z</time>
      </trkpt>
      <trkpt lat="42.97156" lon="0.30675">
        <ele>1578</ele>
        <time>2024-11-28T06:01:01Z</time>
      </trkpt>
      <trkpt lat="42.97165" lon="0.30675">
        <ele>1580</ele>
        <time>2024-11-28T06:01:11Z</time>
      </trkpt>
      <trkpt lat="42.97174" lon="0.30669">
        <ele>1579</ele>
        <time>2024-11-28T06:01:23Z</time>
      </trkpt>
      <trkpt lat="42.97182" lon="0.30664">
        <ele>1581</ele>
        <time>2024-11-28T06:01:33Z</time>
      </trkpt>
      <trkpt lat="42.97192" lon="0.30661">
        <ele>1584</ele>
        <time>2024-11-28T06:01:45Z</time>
      </trkpt>
      <trkpt lat="42.972" lon="0.30655">
        <ele>1585</ele>
        <time>2024-11-28T06:01:55Z</time>
      </trkpt>
      <trkpt lat="42.97204" lon="0.30661">
        <ele>1588</ele>
        <time>2024-11-28T06:02:05Z</time>
      </trkpt>
      <trkpt lat="42.97208" lon="0.3066">
        <ele>1589</ele>
        <time>2024-11-28T06:02:11Z</time>
      </trkpt>
      <trkpt lat="42.97213" lon="0.3066">
        <ele>1592</ele>
        <time>2024-11-28T06:02:17Z</time>
      </trkpt>
      <trkpt lat="42.97215" lon="0.30656">
        <ele>1593</ele>
        <time>2024-11-28T06:02:22Z</time>
      </trkpt>
      <trkpt lat="42.97219" lon="0.30656">
        <ele>1594</ele>
        <time>2024-11-28T06:02:36Z</time>
      </trkpt>
      <trkpt lat="42.97223" lon="0.30659">
        <ele>1594</ele>
        <time>2024-11-28T06:02:43Z</time>
      </trkpt>
      <trkpt lat="42.97226" lon="0.30656">
        <ele>1596</ele>
        <time>2024-11-28T06:02:50Z</time>
      </trkpt>
      <trkpt lat="42.9723" lon="0.30658">
        <ele>1597</ele>
        <time>2024-11-28T06:02:56Z</time>
      </trkpt>
      <trkpt lat="42.97234" lon="0.30659">
        <ele>1600</ele>
        <time>2024-11-28T06:03:06Z</time>
      </trkpt>
      <trkpt lat="42.97244" lon="0.30657">
        <ele>1601</ele>
        <time>2024-11-28T06:03:20Z</time>
      </trkpt>
      <trkpt lat="42.97254" lon="0.30655">
        <ele>1604</ele>
        <time>2024-11-28T06:03:34Z</time>
      </trkpt>
      <trkpt lat="42.97264" lon="0.30652">
        <ele>1608</ele>
        <time>2024-11-28T06:03:53Z</time>
      </trkpt>
      <trkpt lat="42.97274" lon="0.30656">
        <ele>1613</ele>
        <time>2024-11-28T06:04:30Z</time>
      </trkpt>
      <trkpt lat="42.97282" lon="0.30648">
        <ele>1616</ele>
        <time>2024-11-28T06:04:44Z</time>
      </trkpt>
      <trkpt lat="42.97291" lon="0.30643">
        <ele>1617</ele>
        <time>2024-11-28T06:05:00Z</time>
      </trkpt>
      <trkpt lat="42.97299" lon="0.30637">
        <ele>1620</ele>
        <time>2024-11-28T06:05:20Z</time>
      </trkpt>
      <trkpt lat="42.9731" lon="0.30632">
        <ele>1627</ele>
        <time>2024-11-28T06:06:08Z</time>
      </trkpt>
      <trkpt lat="42.97318" lon="0.30628">
        <ele>1629</ele>
        <time>2024-11-28T06:06:28Z</time>
      </trkpt>
      <trkpt lat="42.97327" lon="0.30622">
        <ele>1631</ele>
        <time>2024-11-28T06:06:48Z</time>
      </trkpt>
      <trkpt lat="42.9733" lon="0.30619">
        <ele>1633</ele>
        <time>2024-11-28T06:06:54Z</time>
      </trkpt>
      <trkpt lat="42.97333" lon="0.30616">
        <ele>1634</ele>
        <time>2024-11-28T06:07:10Z</time>
      </trkpt>
      <trkpt lat="42.97337" lon="0.30612">
        <ele>1635</ele>
        <time>2024-11-28T06:07:16Z</time>
      </trkpt>
      <trkpt lat="42.9734" lon="0.30609">
        <ele>1637</ele>
        <time>2024-11-28T06:07:24Z</time>
      </trkpt>
      <trkpt lat="42.97342" lon="0.30605">
        <ele>1639</ele>
        <time>2024-11-28T06:07:30Z</time>
      </trkpt>
      <trkpt lat="42.97343" lon="0.306">
        <ele>1640</ele>
        <time>2024-11-28T06:07:36Z</time>
      </trkpt>
      <trkpt lat="42.97347" lon="0.306">
        <ele>1642</ele>
        <time>2024-11-28T06:07:42Z</time>
      </trkpt>
      <trkpt lat="42.9735" lon="0.30596">
        <ele>1643</ele>
        <time>2024-11-28T06:07:50Z</time>
      </trkpt>
      <trkpt lat="42.97354" lon="0.30585">
        <ele>1646</ele>
        <time>2024-11-28T06:08:26Z</time>
      </trkpt>
      <trkpt lat="42.97361" lon="0.30576">
        <ele>1650</ele>
        <time>2024-11-28T06:08:46Z</time>
      </trkpt>
      <trkpt lat="42.97363" lon="0.30562">
        <ele>1653</ele>
        <time>2024-11-28T06:09:14Z</time>
      </trkpt>
      <trkpt lat="42.97364" lon="0.30548">
        <ele>1658</ele>
        <time>2024-11-28T06:09:30Z</time>
      </trkpt>
      <trkpt lat="42.97358" lon="0.30539">
        <ele>1659</ele>
        <time>2024-11-28T06:09:48Z</time>
      </trkpt>
      <trkpt lat="42.97352" lon="0.30529">
        <ele>1662</ele>
        <time>2024-11-28T06:10:50Z</time>
      </trkpt>
      <trkpt lat="42.97354" lon="0.30526">
        <ele>1662</ele>
        <time>2024-11-28T06:11:00Z</time>
      </trkpt>
      <trkpt lat="42.97353" lon="0.3052">
        <ele>1663</ele>
        <time>2024-11-28T06:11:07Z</time>
      </trkpt>
      <trkpt lat="42.97355" lon="0.30514">
        <ele>1664</ele>
        <time>2024-11-28T06:11:17Z</time>
      </trkpt>
      <trkpt lat="42.97357" lon="0.30495">
        <ele>1668</ele>
        <time>2024-11-28T06:11:39Z</time>
      </trkpt>
      <trkpt lat="42.9736" lon="0.30485">
        <ele>1671</ele>
        <time>2024-11-28T06:11:49Z</time>
      </trkpt>
      <trkpt lat="42.9736" lon="0.30468">
        <ele>1673</ele>
        <time>2024-11-28T06:12:21Z</time>
      </trkpt>
      <trkpt lat="42.9736" lon="0.3045">
        <ele>1675</ele>
        <time>2024-11-28T06:12:37Z</time>
      </trkpt>
      <trkpt lat="42.97359" lon="0.30444">
        <ele>1676</ele>
        <time>2024-11-28T06:12:45Z</time>
      </trkpt>
      <trkpt lat="42.97358" lon="0.30439">
        <ele>1676</ele>
        <time>2024-11-28T06:12:49Z</time>
      </trkpt>
      <trkpt lat="42.97357" lon="0.30434">
        <ele>1677</ele>
        <time>2024-11-28T06:12:53Z</time>
      </trkpt>
      <trkpt lat="42.97354" lon="0.30431">
        <ele>1678</ele>
        <time>2024-11-28T06:12:59Z</time>
      </trkpt>
      <trkpt lat="42.97352" lon="0.30427">
        <ele>1679</ele>
        <time>2024-11-28T06:13:05Z</time>
      </trkpt>
      <trkpt lat="42.97348" lon="0.30425">
        <ele>1679</ele>
        <time>2024-11-28T06:13:11Z</time>
      </trkpt>
      <trkpt lat="42.97345" lon="0.30421">
        <ele>1681</ele>
        <time>2024-11-28T06:13:17Z</time>
      </trkpt>
      <trkpt lat="42.97344" lon="0.30417">
        <ele>1683</ele>
        <time>2024-11-28T06:13:33Z</time>
      </trkpt>
      <trkpt lat="42.97343" lon="0.30406">
        <ele>1687</ele>
        <time>2024-11-28T06:13:53Z</time>
      </trkpt>
      <trkpt lat="42.97341" lon="0.30402">
        <ele>1689</ele>
        <time>2024-11-28T06:14:11Z</time>
      </trkpt>
      <trkpt lat="42.97338" lon="0.30398">
        <ele>1690</ele>
        <time>2024-11-28T06:14:21Z</time>
      </trkpt>
      <trkpt lat="42.97337" lon="0.30393">
        <ele>1691</ele>
        <time>2024-11-28T06:14:27Z</time>
      </trkpt>
      <trkpt lat="42.97336" lon="0.30388">
        <ele>1692</ele>
        <time>2024-11-28T06:14:33Z</time>
      </trkpt>
      <trkpt lat="42.9733" lon="0.30376">
        <ele>1696</ele>
        <time>2024-11-28T06:16:05Z</time>
      </trkpt>
      <trkpt lat="42.97332" lon="0.30363">
        <ele>1698</ele>
        <time>2024-11-28T06:16:29Z</time>
      </trkpt>
      <trkpt lat="42.97335" lon="0.30351">
        <ele>1700</ele>
        <time>2024-11-28T06:16:49Z</time>
      </trkpt>
      <trkpt lat="42.97338" lon="0.30339">
        <ele>1704</ele>
        <time>2024-11-28T06:17:03Z</time>
      </trkpt>
      <trkpt lat="42.97346" lon="0.30344">
        <ele>1708</ele>
        <time>2024-11-28T06:17:29Z</time>
      </trkpt>
      <trkpt lat="42.97356" lon="0.30346">
        <ele>1713</ele>
        <time>2024-11-28T06:18:39Z</time>
      </trkpt>
      <trkpt lat="42.97361" lon="0.30346">
        <ele>1714</ele>
        <time>2024-11-28T06:18:59Z</time>
      </trkpt>
      <trkpt lat="42.97364" lon="0.30344">
        <ele>1714</ele>
        <time>2024-11-28T06:19:05Z</time>
      </trkpt>
      <trkpt lat="42.97363" lon="0.30339">
        <ele>1715</ele>
        <time>2024-11-28T06:19:11Z</time>
      </trkpt>
      <trkpt lat="42.97364" lon="0.30334">
        <ele>1718</ele>
        <time>2024-11-28T06:19:21Z</time>
      </trkpt>
      <trkpt lat="42.97366" lon="0.30331">
        <ele>1720</ele>
        <time>2024-11-28T06:19:33Z</time>
      </trkpt>
      <trkpt lat="42.9737" lon="0.3033">
        <ele>1723</ele>
        <time>2024-11-28T06:19:45Z</time>
      </trkpt>
      <trkpt lat="42.97368" lon="0.30317">
        <ele>1727</ele>
        <time>2024-11-28T06:20:29Z</time>
      </trkpt>
      <trkpt lat="42.97366" lon="0.30304">
        <ele>1730</ele>
        <time>2024-11-28T06:20:41Z</time>
      </trkpt>
      <trkpt lat="42.97366" lon="0.3029">
        <ele>1731</ele>
        <time>2024-11-28T06:20:55Z</time>
      </trkpt>
      <trkpt lat="42.97371" lon="0.30278">
        <ele>1735</ele>
        <time>2024-11-28T06:22:13Z</time>
      </trkpt>
      <trkpt lat="42.97368" lon="0.30266">
        <ele>1738</ele>
        <time>2024-11-28T06:22:31Z</time>
      </trkpt>
      <trkpt lat="42.97368" lon="0.30254">
        <ele>1739</ele>
        <time>2024-11-28T06:22:46Z</time>
      </trkpt>
      <trkpt lat="42.97371" lon="0.3025">
        <ele>1739</ele>
        <time>2024-11-28T06:22:49Z</time>
      </trkpt>
      <trkpt lat="42.97372" lon="0.30244">
        <ele>1740</ele>
        <time>2024-11-28T06:22:53Z</time>
      </trkpt>
      <trkpt lat="42.97374" lon="0.30241">
        <ele>1741</ele>
        <time>2024-11-28T06:23:03Z</time>
      </trkpt>
      <trkpt lat="42.97374" lon="0.30227">
        <ele>1740</ele>
        <time>2024-11-28T06:23:15Z</time>
      </trkpt>
      <trkpt lat="42.97377" lon="0.30225">
        <ele>1741</ele>
        <time>2024-11-28T06:23:19Z</time>
      </trkpt>
      <trkpt lat="42.97381" lon="0.30224">
        <ele>1742</ele>
        <time>2024-11-28T06:23:27Z</time>
      </trkpt>
      <trkpt lat="42.97391" lon="0.30213">
        <ele>1744</ele>
        <time>2024-11-28T06:24:09Z</time>
      </trkpt>
      <trkpt lat="42.97398" lon="0.30205">
        <ele>1745</ele>
        <time>2024-11-28T06:24:21Z</time>
      </trkpt>
      <trkpt lat="42.97401" lon="0.30202">
        <ele>1746</ele>
        <time>2024-11-28T06:24:29Z</time>
      </trkpt>
      <trkpt lat="42.97404" lon="0.302">
        <ele>1746</ele>
        <time>2024-11-28T06:24:35Z</time>
      </trkpt>
      <trkpt lat="42.9741" lon="0.30191">
        <ele>1747</ele>
        <time>2024-11-28T06:24:45Z</time>
      </trkpt>
      <trkpt lat="42.97414" lon="0.30187">
        <ele>1747</ele>
        <time>2024-11-28T06:24:51Z</time>
      </trkpt>
      <trkpt lat="42.97417" lon="0.30184">
        <ele>1750</ele>
        <time>2024-11-28T06:24:57Z</time>
      </trkpt>
      <trkpt lat="42.97422" lon="0.30178">
        <ele>1753</ele>
        <time>2024-11-28T06:25:07Z</time>
      </trkpt>
      <trkpt lat="42.97425" lon="0.30174">
        <ele>1755</ele>
        <time>2024-11-28T06:25:15Z</time>
      </trkpt>
      <trkpt lat="42.97431" lon="0.3017">
        <ele>1758</ele>
        <time>2024-11-28T06:25:29Z</time>
      </trkpt>
      <trkpt lat="42.97435" lon="0.30173">
        <ele>1761</ele>
        <time>2024-11-28T06:25:41Z</time>
      </trkpt>
      <trkpt lat="42.97438" lon="0.30176">
        <ele>1762</ele>
        <time>2024-11-28T06:25:51Z</time>
      </trkpt>
      <trkpt lat="42.97446" lon="0.30169">
        <ele>1763</ele>
        <time>2024-11-28T06:26:57Z</time>
      </trkpt>
      <trkpt lat="42.9745" lon="0.30169">
        <ele>1768</ele>
        <time>2024-11-28T06:27:05Z</time>
      </trkpt>
      <trkpt lat="42.97458" lon="0.30156">
        <ele>1772</ele>
        <time>2024-11-28T06:27:23Z</time>
      </trkpt>
      <trkpt lat="42.97461" lon="0.30153">
        <ele>1774</ele>
        <time>2024-11-28T06:27:29Z</time>
      </trkpt>
      <trkpt lat="42.97463" lon="0.30149">
        <ele>1777</ele>
        <time>2024-11-28T06:27:39Z</time>
      </trkpt>
      <trkpt lat="42.97467" lon="0.30148">
        <ele>1778</ele>
        <time>2024-11-28T06:27:47Z</time>
      </trkpt>
      <trkpt lat="42.97471" lon="0.30146">
        <ele>1779</ele>
        <time>2024-11-28T06:28:23Z</time>
      </trkpt>
      <trkpt lat="42.97474" lon="0.30144">
        <ele>1781</ele>
        <time>2024-11-28T06:28:33Z</time>
      </trkpt>
      <trkpt lat="42.97475" lon="0.30138">
        <ele>1782</ele>
        <time>2024-11-28T06:28:39Z</time>
      </trkpt>
      <trkpt lat="42.97479" lon="0.30135">
        <ele>1783</ele>
        <time>2024-11-28T06:28:47Z</time>
      </trkpt>
      <trkpt lat="42.97482" lon="0.30132">
        <ele>1785</ele>
        <time>2024-11-28T06:28:57Z</time>
      </trkpt>
      <trkpt lat="42.97485" lon="0.30129">
        <ele>1786</ele>
        <time>2024-11-28T06:29:05Z</time>
      </trkpt>
      <trkpt lat="42.97488" lon="0.30127">
        <ele>1788</ele>
        <time>2024-11-28T06:29:17Z</time>
      </trkpt>
      <trkpt lat="42.97491" lon="0.30115">
        <ele>1789</ele>
        <time>2024-11-28T06:30:27Z</time>
      </trkpt>
      <trkpt lat="42.97495" lon="0.30113">
        <ele>1792</ele>
        <time>2024-11-28T06:30:33Z</time>
      </trkpt>
      <trkpt lat="42.97497" lon="0.30107">
        <ele>1794</ele>
        <time>2024-11-28T06:30:39Z</time>
      </trkpt>
      <trkpt lat="42.975" lon="0.30104">
        <ele>1796</ele>
        <time>2024-11-28T06:30:47Z</time>
      </trkpt>
      <trkpt lat="42.97504" lon="0.30092">
        <ele>1797</ele>
        <time>2024-11-28T06:30:59Z</time>
      </trkpt>
      <trkpt lat="42.97506" lon="0.30087">
        <ele>1798</ele>
        <time>2024-11-28T06:31:05Z</time>
      </trkpt>
      <trkpt lat="42.97506" lon="0.30077">
        <ele>1802</ele>
        <time>2024-11-28T06:31:15Z</time>
      </trkpt>
      <trkpt lat="42.97508" lon="0.30072">
        <ele>1804</ele>
        <time>2024-11-28T06:31:21Z</time>
      </trkpt>
      <trkpt lat="42.97509" lon="0.30067">
        <ele>1804</ele>
        <time>2024-11-28T06:31:27Z</time>
      </trkpt>
      <trkpt lat="42.97511" lon="0.30062">
        <ele>1806</ele>
        <time>2024-11-28T06:31:33Z</time>
      </trkpt>
      <trkpt lat="42.97513" lon="0.30058">
        <ele>1808</ele>
        <time>2024-11-28T06:32:37Z</time>
      </trkpt>
      <trkpt lat="42.97514" lon="0.30053">
        <ele>1810</ele>
        <time>2024-11-28T06:32:45Z</time>
      </trkpt>
      <trkpt lat="42.97514" lon="0.30048">
        <ele>1810</ele>
        <time>2024-11-28T06:32:51Z</time>
      </trkpt>
      <trkpt lat="42.97514" lon="0.30043">
        <ele>1812</ele>
        <time>2024-11-28T06:32:57Z</time>
      </trkpt>
      <trkpt lat="42.97516" lon="0.30039">
        <ele>1812</ele>
        <time>2024-11-28T06:33:03Z</time>
      </trkpt>
      <trkpt lat="42.97519" lon="0.30037">
        <ele>1813</ele>
        <time>2024-11-28T06:33:09Z</time>
      </trkpt>
      <trkpt lat="42.97523" lon="0.30035">
        <ele>1815</ele>
        <time>2024-11-28T06:33:17Z</time>
      </trkpt>
      <trkpt lat="42.97524" lon="0.3003">
        <ele>1817</ele>
        <time>2024-11-28T06:33:23Z</time>
      </trkpt>
      <trkpt lat="42.97528" lon="0.30022">
        <ele>1821</ele>
        <time>2024-11-28T06:33:39Z</time>
      </trkpt>
      <trkpt lat="42.97532" lon="0.30021">
        <ele>1822</ele>
        <time>2024-11-28T06:34:11Z</time>
      </trkpt>
      <trkpt lat="42.97541" lon="0.30011">
        <ele>1827</ele>
        <time>2024-11-28T06:34:29Z</time>
      </trkpt>
      <trkpt lat="42.97544" lon="0.3001">
        <ele>1828</ele>
        <time>2024-11-28T06:34:35Z</time>
      </trkpt>
      <trkpt lat="42.97547" lon="0.30014">
        <ele>1829</ele>
        <time>2024-11-28T06:34:47Z</time>
      </trkpt>
      <trkpt lat="42.97551" lon="0.30028">
        <ele>1832</ele>
        <time>2024-11-28T06:36:39Z</time>
      </trkpt>
      <trkpt lat="42.97558" lon="0.3004">
        <ele>1833</ele>
        <time>2024-11-28T06:36:47Z</time>
      </trkpt>
      <trkpt lat="42.97563" lon="0.30052">
        <ele>1834</ele>
        <time>2024-11-28T06:36:55Z</time>
      </trkpt>
      <trkpt lat="42.97566" lon="0.30065">
        <ele>1837</ele>
        <time>2024-11-28T06:37:07Z</time>
      </trkpt>
      <trkpt lat="42.97572" lon="0.30078">
        <ele>1839</ele>
        <time>2024-11-28T06:37:21Z</time>
      </trkpt>
      <trkpt lat="42.97574" lon="0.3009">
        <ele>1842</ele>
        <time>2024-11-28T06:37:35Z</time>
      </trkpt>
      <trkpt lat="42.97576" lon="0.30101">
        <ele>1846</ele>
        <time>2024-11-28T06:37:47Z</time>
      </trkpt>
      <trkpt lat="42.97573" lon="0.30105">
        <ele>1848</ele>
        <time>2024-11-28T06:37:53Z</time>
      </trkpt>
      <trkpt lat="42.97571" lon="0.3011">
        <ele>1847</ele>
        <time>2024-11-28T06:37:59Z</time>
      </trkpt>
      <trkpt lat="42.97569" lon="0.30114">
        <ele>1847</ele>
        <time>2024-11-28T06:38:05Z</time>
      </trkpt>
      <trkpt lat="42.97568" lon="0.3012">
        <ele>1848</ele>
        <time>2024-11-28T06:39:45Z</time>
      </trkpt>
      <trkpt lat="42.97573" lon="0.3013">
        <ele>1852</ele>
        <time>2024-11-28T06:39:57Z</time>
      </trkpt>
      <trkpt lat="42.97572" lon="0.30135">
        <ele>1853</ele>
        <time>2024-11-28T06:40:01Z</time>
      </trkpt>
      <trkpt lat="42.97574" lon="0.3014">
        <ele>1855</ele>
        <time>2024-11-28T06:40:07Z</time>
      </trkpt>
      <trkpt lat="42.97578" lon="0.30142">
        <ele>1855</ele>
        <time>2024-11-28T06:40:11Z</time>
      </trkpt>
      <trkpt lat="42.9758" lon="0.30148">
        <ele>1857</ele>
        <time>2024-11-28T06:40:17Z</time>
      </trkpt>
      <trkpt lat="42.97583" lon="0.30152">
        <ele>1858</ele>
        <time>2024-11-28T06:40:23Z</time>
      </trkpt>
      <trkpt lat="42.97585" lon="0.30157">
        <ele>1859</ele>
        <time>2024-11-28T06:40:29Z</time>
      </trkpt>
      <trkpt lat="42.97584" lon="0.30162">
        <ele>1860</ele>
        <time>2024-11-28T06:40:33Z</time>
      </trkpt>
      <trkpt lat="42.97584" lon="0.30167">
        <ele>1861</ele>
        <time>2024-11-28T06:40:39Z</time>
      </trkpt>
      <trkpt lat="42.97588" lon="0.30171">
        <ele>1862</ele>
        <time>2024-11-28T06:40:45Z</time>
      </trkpt>
      <trkpt lat="42.97593" lon="0.30173">
        <ele>1862</ele>
        <time>2024-11-28T06:41:37Z</time>
      </trkpt>
      <trkpt lat="42.97597" lon="0.30174">
        <ele>1863</ele>
        <time>2024-11-28T06:41:41Z</time>
      </trkpt>
      <trkpt lat="42.9761" lon="0.30182">
        <ele>1864</ele>
        <time>2024-11-28T06:41:55Z</time>
      </trkpt>
      <trkpt lat="42.97617" lon="0.30192">
        <ele>1864</ele>
        <time>2024-11-28T06:42:09Z</time>
      </trkpt>
      <trkpt lat="42.97619" lon="0.30204">
        <ele>1867</ele>
        <time>2024-11-28T06:42:21Z</time>
      </trkpt>
      <trkpt lat="42.97621" lon="0.30208">
        <ele>1868</ele>
        <time>2024-11-28T06:42:25Z</time>
      </trkpt>
      <trkpt lat="42.97621" lon="0.30214">
        <ele>1869</ele>
        <time>2024-11-28T06:42:31Z</time>
      </trkpt>
      <trkpt lat="42.97621" lon="0.30219">
        <ele>1870</ele>
        <time>2024-11-28T06:42:37Z</time>
      </trkpt>
      <trkpt lat="42.97622" lon="0.30224">
        <ele>1871</ele>
        <time>2024-11-28T06:43:33Z</time>
      </trkpt>
      <trkpt lat="42.97626" lon="0.30228">
        <ele>1872</ele>
        <time>2024-11-28T06:43:39Z</time>
      </trkpt>
      <trkpt lat="42.97635" lon="0.30231">
        <ele>1873</ele>
        <time>2024-11-28T06:43:49Z</time>
      </trkpt>
      <trkpt lat="42.97645" lon="0.30237">
        <ele>1875</ele>
        <time>2024-11-28T06:44:01Z</time>
      </trkpt>
      <trkpt lat="42.97653" lon="0.30242">
        <ele>1878</ele>
        <time>2024-11-28T06:44:19Z</time>
      </trkpt>
      <trkpt lat="42.97657" lon="0.30244">
        <ele>1882</ele>
        <time>2024-11-28T06:44:29Z</time>
      </trkpt>
      <trkpt lat="42.97658" lon="0.30249">
        <ele>1884</ele>
        <time>2024-11-28T06:44:55Z</time>
      </trkpt>
      <trkpt lat="42.9766" lon="0.30253">
        <ele>1885</ele>
        <time>2024-11-28T06:45:05Z</time>
      </trkpt>
      <trkpt lat="42.97662" lon="0.30258">
        <ele>1886</ele>
        <time>2024-11-28T06:45:11Z</time>
      </trkpt>
      <trkpt lat="42.97666" lon="0.3026">
        <ele>1888</ele>
        <time>2024-11-28T06:45:33Z</time>
      </trkpt>
      <trkpt lat="42.9767" lon="0.30261">
        <ele>1889</ele>
        <time>2024-11-28T06:45:41Z</time>
      </trkpt>
      <trkpt lat="42.97671" lon="0.30266">
        <ele>1890</ele>
        <time>2024-11-28T06:45:49Z</time>
      </trkpt>
      <trkpt lat="42.97671" lon="0.30271">
        <ele>1891</ele>
        <time>2024-11-28T06:45:55Z</time>
      </trkpt>
      <trkpt lat="42.97672" lon="0.30276">
        <ele>1892</ele>
        <time>2024-11-28T06:46:37Z</time>
      </trkpt>
      <trkpt lat="42.97676" lon="0.30277">
        <ele>1892</ele>
        <time>2024-11-28T06:46:43Z</time>
      </trkpt>
      <trkpt lat="42.97679" lon="0.30282">
        <ele>1893</ele>
        <time>2024-11-28T06:46:51Z</time>
      </trkpt>
      <trkpt lat="42.97686" lon="0.30297">
        <ele>1896</ele>
        <time>2024-11-28T06:47:09Z</time>
      </trkpt>
      <trkpt lat="42.97686" lon="0.30302">
        <ele>1897</ele>
        <time>2024-11-28T06:47:15Z</time>
      </trkpt>
      <trkpt lat="42.97688" lon="0.30308">
        <ele>1899</ele>
        <time>2024-11-28T06:47:21Z</time>
      </trkpt>
      <trkpt lat="42.97688" lon="0.30312">
        <ele>1903</ele>
        <time>2024-11-28T06:48:07Z</time>
      </trkpt>
      <trkpt lat="42.9769" lon="0.30317">
        <ele>1905</ele>
        <time>2024-11-28T06:48:39Z</time>
      </trkpt>
      <trkpt lat="42.97692" lon="0.30321">
        <ele>1906</ele>
        <time>2024-11-28T06:48:43Z</time>
      </trkpt>
      <trkpt lat="42.97702" lon="0.3034">
        <ele>1910</ele>
        <time>2024-11-28T06:49:01Z</time>
      </trkpt>
      <trkpt lat="42.97704" lon="0.30342">
        <ele>1910</ele>
        <time>2024-11-28T06:49:05Z</time>
      </trkpt>
      <trkpt lat="42.97708" lon="0.30347">
        <ele>1911</ele>
        <time>2024-11-28T06:49:11Z</time>
      </trkpt>
      <trkpt lat="42.97711" lon="0.30352">
        <ele>1913</ele>
        <time>2024-11-28T06:49:17Z</time>
      </trkpt>
      <trkpt lat="42.97711" lon="0.30359">
        <ele>1914</ele>
        <time>2024-11-28T06:49:23Z</time>
      </trkpt>
      <trkpt lat="42.9771" lon="0.30363">
        <ele>1915</ele>
        <time>2024-11-28T06:49:43Z</time>
      </trkpt>
      <trkpt lat="42.97712" lon="0.30392">
        <ele>1917</ele>
        <time>2024-11-28T06:50:08Z</time>
      </trkpt>
      <trkpt lat="42.97713" lon="0.30397">
        <ele>1917</ele>
        <time>2024-11-28T06:50:12Z</time>
      </trkpt>
      <trkpt lat="42.97715" lon="0.30409">
        <ele>1918</ele>
        <time>2024-11-28T06:50:28Z</time>
      </trkpt>
      <trkpt lat="42.97715" lon="0.30415">
        <ele>1920</ele>
        <time>2024-11-28T06:50:34Z</time>
      </trkpt>
      <trkpt lat="42.97717" lon="0.30425">
        <ele>1925</ele>
        <time>2024-11-28T06:52:51Z</time>
      </trkpt>
      <trkpt lat="42.97717" lon="0.30431">
        <ele>1926</ele>
        <time>2024-11-28T06:58:35Z</time>
      </trkpt>
      <trkpt lat="42.97717" lon="0.30437">
        <ele>1924</ele>
        <time>2024-11-28T06:58:39Z</time>
      </trkpt>
      <trkpt lat="42.97716" lon="0.30443">
        <ele>1924</ele>
        <time>2024-11-28T06:58:43Z</time>
      </trkpt>
      <trkpt lat="42.97714" lon="0.30449">
        <ele>1923</ele>
        <time>2024-11-28T06:58:47Z</time>
      </trkpt>
      <trkpt lat="42.97714" lon="0.30454">
        <ele>1923</ele>
        <time>2024-11-28T06:58:51Z</time>
      </trkpt>
      <trkpt lat="42.97715" lon="0.30459">
        <ele>1923</ele>
        <time>2024-11-28T06:59:13Z</time>
      </trkpt>
      <trkpt lat="42.97714" lon="0.30477">
        <ele>1923</ele>
        <time>2024-11-28T06:59:27Z</time>
      </trkpt>
      <trkpt lat="42.97712" lon="0.30491">
        <ele>1923</ele>
        <time>2024-11-28T06:59:37Z</time>
      </trkpt>
      <trkpt lat="42.9771" lon="0.30504">
        <ele>1923</ele>
        <time>2024-11-28T06:59:47Z</time>
      </trkpt>
      <trkpt lat="42.97709" lon="0.30517">
        <ele>1922</ele>
        <time>2024-11-28T06:59:57Z</time>
      </trkpt>
      <trkpt lat="42.97708" lon="0.30527">
        <ele>1923</ele>
        <time>2024-11-28T07:00:07Z</time>
      </trkpt>
      <trkpt lat="42.97709" lon="0.30533">
        <ele>1924</ele>
        <time>2024-11-28T07:01:43Z</time>
      </trkpt>
      <trkpt lat="42.97708" lon="0.3054">
        <ele>1924</ele>
        <time>2024-11-28T07:01:47Z</time>
      </trkpt>
      <trkpt lat="42.97708" lon="0.30544">
        <ele>1924</ele>
        <time>2024-11-28T07:01:51Z</time>
      </trkpt>
      <trkpt lat="42.97709" lon="0.30549">
        <ele>1923</ele>
        <time>2024-11-28T07:02:27Z</time>
      </trkpt>
      <trkpt lat="42.97708" lon="0.30555">
        <ele>1923</ele>
        <time>2024-11-28T07:02:35Z</time>
      </trkpt>
      <trkpt lat="42.97707" lon="0.30594">
        <ele>1922</ele>
        <time>2024-11-28T07:03:09Z</time>
      </trkpt>
      <trkpt lat="42.97708" lon="0.30594">
        <ele>1923</ele>
        <time>2024-11-28T07:13:58Z</time>
      </trkpt>
      <trkpt lat="42.97708" lon="0.30597">
        <ele>1921</ele>
        <time>2024-11-28T07:20:17Z</time>
      </trkpt>
      <trkpt lat="42.97705" lon="0.30609">
        <ele>1921</ele>
        <time>2024-11-28T07:22:15Z</time>
      </trkpt>
      <trkpt lat="42.97699" lon="0.30618">
        <ele>1921</ele>
        <time>2024-11-28T07:22:29Z</time>
      </trkpt>
      <trkpt lat="42.97695" lon="0.30631">
        <ele>1913</ele>
        <time>2024-11-28T07:22:43Z</time>
      </trkpt>
      <trkpt lat="42.97694" lon="0.30636">
        <ele>1911</ele>
        <time>2024-11-28T07:22:51Z</time>
      </trkpt>
      <trkpt lat="42.97691" lon="0.30638">
        <ele>1910</ele>
        <time>2024-11-28T07:22:55Z</time>
      </trkpt>
      <trkpt lat="42.97689" lon="0.30643">
        <ele>1908</ele>
        <time>2024-11-28T07:23:01Z</time>
      </trkpt>
      <trkpt lat="42.97689" lon="0.30649">
        <ele>1908</ele>
        <time>2024-11-28T07:23:05Z</time>
      </trkpt>
      <trkpt lat="42.97686" lon="0.30654">
        <ele>1905</ele>
        <time>2024-11-28T07:23:11Z</time>
      </trkpt>
      <trkpt lat="42.97683" lon="0.30657">
        <ele>1904</ele>
        <time>2024-11-28T07:23:15Z</time>
      </trkpt>
      <trkpt lat="42.97681" lon="0.30662">
        <ele>1902</ele>
        <time>2024-11-28T07:23:23Z</time>
      </trkpt>
      <trkpt lat="42.97678" lon="0.30667">
        <ele>1901</ele>
        <time>2024-11-28T07:23:29Z</time>
      </trkpt>
      <trkpt lat="42.97675" lon="0.30677">
        <ele>1897</ele>
        <time>2024-11-28T07:23:39Z</time>
      </trkpt>
      <trkpt lat="42.97671" lon="0.30681">
        <ele>1896</ele>
        <time>2024-11-28T07:23:45Z</time>
      </trkpt>
      <trkpt lat="42.97667" lon="0.30692">
        <ele>1893</ele>
        <time>2024-11-28T07:24:01Z</time>
      </trkpt>
      <trkpt lat="42.97662" lon="0.30705">
        <ele>1889</ele>
        <time>2024-11-28T07:24:13Z</time>
      </trkpt>
      <trkpt lat="42.97659" lon="0.30718">
        <ele>1887</ele>
        <time>2024-11-28T07:24:25Z</time>
      </trkpt>
      <trkpt lat="42.97654" lon="0.30729">
        <ele>1883</ele>
        <time>2024-11-28T07:24:37Z</time>
      </trkpt>
      <trkpt lat="42.97648" lon="0.30739">
        <ele>1882</ele>
        <time>2024-11-28T07:24:49Z</time>
      </trkpt>
      <trkpt lat="42.97641" lon="0.30749">
        <ele>1879</ele>
        <time>2024-11-28T07:25:07Z</time>
      </trkpt>
      <trkpt lat="42.97635" lon="0.30758">
        <ele>1878</ele>
        <time>2024-11-28T07:25:23Z</time>
      </trkpt>
      <trkpt lat="42.97627" lon="0.30766">
        <ele>1874</ele>
        <time>2024-11-28T07:25:41Z</time>
      </trkpt>
      <trkpt lat="42.97621" lon="0.30774">
        <ele>1873</ele>
        <time>2024-11-28T07:25:55Z</time>
      </trkpt>
      <trkpt lat="42.97615" lon="0.30784">
        <ele>1868</ele>
        <time>2024-11-28T07:27:47Z</time>
      </trkpt>
      <trkpt lat="42.9761" lon="0.30794">
        <ele>1867</ele>
        <time>2024-11-28T07:28:01Z</time>
      </trkpt>
      <trkpt lat="42.97602" lon="0.30819">
        <ele>1863</ele>
        <time>2024-11-28T07:28:31Z</time>
      </trkpt>
      <trkpt lat="42.97588" lon="0.30839">
        <ele>1861</ele>
        <time>2024-11-28T07:28:57Z</time>
      </trkpt>
      <trkpt lat="42.97582" lon="0.30847">
        <ele>1858</ele>
        <time>2024-11-28T07:30:27Z</time>
      </trkpt>
      <trkpt lat="42.97566" lon="0.30884">
        <ele>1860</ele>
        <time>2024-11-28T07:31:02Z</time>
      </trkpt>
      <trkpt lat="42.97564" lon="0.30888">
        <ele>1860</ele>
        <time>2024-11-28T07:31:06Z</time>
      </trkpt>
      <trkpt lat="42.97559" lon="0.30896">
        <ele>1861</ele>
        <time>2024-11-28T07:31:16Z</time>
      </trkpt>
      <trkpt lat="42.97557" lon="0.30908">
        <ele>1863</ele>
        <time>2024-11-28T07:31:30Z</time>
      </trkpt>
      <trkpt lat="42.97552" lon="0.30918">
        <ele>1864</ele>
        <time>2024-11-28T07:31:40Z</time>
      </trkpt>
      <trkpt lat="42.97551" lon="0.30923">
        <ele>1864</ele>
        <time>2024-11-28T07:31:44Z</time>
      </trkpt>
      <trkpt lat="42.97547" lon="0.30934">
        <ele>1867</ele>
        <time>2024-11-28T07:31:56Z</time>
      </trkpt>
      <trkpt lat="42.9754" lon="0.30948">
        <ele>1868</ele>
        <time>2024-11-28T07:32:10Z</time>
      </trkpt>
      <trkpt lat="42.97538" lon="0.30954">
        <ele>1870</ele>
        <time>2024-11-28T07:32:16Z</time>
      </trkpt>
      <trkpt lat="42.97526" lon="0.30972">
        <ele>1869</ele>
        <time>2024-11-28T07:32:36Z</time>
      </trkpt>
      <trkpt lat="42.9752" lon="0.30984">
        <ele>1870</ele>
        <time>2024-11-28T07:32:54Z</time>
      </trkpt>
      <trkpt lat="42.97512" lon="0.31009">
        <ele>1870</ele>
        <time>2024-11-28T07:33:14Z</time>
      </trkpt>
      <trkpt lat="42.97502" lon="0.31032">
        <ele>1870</ele>
        <time>2024-11-28T07:34:08Z</time>
      </trkpt>
      <trkpt lat="42.97498" lon="0.31044">
        <ele>1871</ele>
        <time>2024-11-28T07:34:22Z</time>
      </trkpt>
      <trkpt lat="42.97497" lon="0.31051">
        <ele>1876</ele>
        <time>2024-11-28T07:34:28Z</time>
      </trkpt>
      <trkpt lat="42.97495" lon="0.31057">
        <ele>1878</ele>
        <time>2024-11-28T07:34:34Z</time>
      </trkpt>
      <trkpt lat="42.97495" lon="0.31062">
        <ele>1878</ele>
        <time>2024-11-28T07:34:38Z</time>
      </trkpt>
      <trkpt lat="42.97495" lon="0.31067">
        <ele>1879</ele>
        <time>2024-11-28T07:34:44Z</time>
      </trkpt>
      <trkpt lat="42.97494" lon="0.31072">
        <ele>1880</ele>
        <time>2024-11-28T07:34:50Z</time>
      </trkpt>
      <trkpt lat="42.97493" lon="0.31077">
        <ele>1882</ele>
        <time>2024-11-28T07:34:56Z</time>
      </trkpt>
      <trkpt lat="42.97489" lon="0.31079">
        <ele>1883</ele>
        <time>2024-11-28T07:35:08Z</time>
      </trkpt>
      <trkpt lat="42.97489" lon="0.31085">
        <ele>1885</ele>
        <time>2024-11-28T07:35:16Z</time>
      </trkpt>
      <trkpt lat="42.97486" lon="0.3109">
        <ele>1886</ele>
        <time>2024-11-28T07:35:22Z</time>
      </trkpt>
      <trkpt lat="42.97484" lon="0.31095">
        <ele>1889</ele>
        <time>2024-11-28T07:35:30Z</time>
      </trkpt>
      <trkpt lat="42.97484" lon="0.311">
        <ele>1890</ele>
        <time>2024-11-28T07:35:36Z</time>
      </trkpt>
      <trkpt lat="42.97481" lon="0.31106">
        <ele>1892</ele>
        <time>2024-11-28T07:35:42Z</time>
      </trkpt>
      <trkpt lat="42.97479" lon="0.3111">
        <ele>1893</ele>
        <time>2024-11-28T07:35:46Z</time>
      </trkpt>
      <trkpt lat="42.97475" lon="0.31114">
        <ele>1893</ele>
        <time>2024-11-28T07:35:54Z</time>
      </trkpt>
      <trkpt lat="42.97471" lon="0.31116">
        <ele>1894</ele>
        <time>2024-11-28T07:36:00Z</time>
      </trkpt>
      <trkpt lat="42.97466" lon="0.31126">
        <ele>1894</ele>
        <time>2024-11-28T07:36:50Z</time>
      </trkpt>
      <trkpt lat="42.9746" lon="0.31137">
        <ele>1898</ele>
        <time>2024-11-28T07:37:06Z</time>
      </trkpt>
      <trkpt lat="42.97459" lon="0.31142">
        <ele>1900</ele>
        <time>2024-11-28T07:37:14Z</time>
      </trkpt>
      <trkpt lat="42.97455" lon="0.31145">
        <ele>1900</ele>
        <time>2024-11-28T07:37:22Z</time>
      </trkpt>
      <trkpt lat="42.97453" lon="0.3115">
        <ele>1900</ele>
        <time>2024-11-28T07:37:58Z</time>
      </trkpt>
      <trkpt lat="42.97452" lon="0.31156">
        <ele>1901</ele>
        <time>2024-11-28T07:38:04Z</time>
      </trkpt>
      <trkpt lat="42.97449" lon="0.3116">
        <ele>1902</ele>
        <time>2024-11-28T07:38:10Z</time>
      </trkpt>
      <trkpt lat="42.97446" lon="0.31162">
        <ele>1902</ele>
        <time>2024-11-28T07:38:58Z</time>
      </trkpt>
      <trkpt lat="42.97438" lon="0.31168">
        <ele>1901</ele>
        <time>2024-11-28T07:44:54Z</time>
      </trkpt>
      <trkpt lat="42.9743" lon="0.31176">
        <ele>1899</ele>
        <time>2024-11-28T07:45:24Z</time>
      </trkpt>
      <trkpt lat="42.9742" lon="0.31181">
        <ele>1898</ele>
        <time>2024-11-28T07:45:36Z</time>
      </trkpt>
      <trkpt lat="42.97411" lon="0.31186">
        <ele>1896</ele>
        <time>2024-11-28T07:45:56Z</time>
      </trkpt>
      <trkpt lat="42.97404" lon="0.31194">
        <ele>1896</ele>
        <time>2024-11-28T07:46:10Z</time>
      </trkpt>
      <trkpt lat="42.97396" lon="0.31201">
        <ele>1895</ele>
        <time>2024-11-28T07:46:32Z</time>
      </trkpt>
      <trkpt lat="42.9739" lon="0.31213">
        <ele>1895</ele>
        <time>2024-11-28T07:46:42Z</time>
      </trkpt>
      <trkpt lat="42.97385" lon="0.31224">
        <ele>1895</ele>
        <time>2024-11-28T07:46:52Z</time>
      </trkpt>
      <trkpt lat="42.97368" lon="0.31237">
        <ele>1893</ele>
        <time>2024-11-28T07:47:46Z</time>
      </trkpt>
      <trkpt lat="42.97344" lon="0.31263">
        <ele>1892</ele>
        <time>2024-11-28T07:48:16Z</time>
      </trkpt>
      <trkpt lat="42.97336" lon="0.31273">
        <ele>1891</ele>
        <time>2024-11-28T07:48:26Z</time>
      </trkpt>
      <trkpt lat="42.97331" lon="0.31283">
        <ele>1892</ele>
        <time>2024-11-28T07:48:36Z</time>
      </trkpt>
      <trkpt lat="42.97324" lon="0.31293">
        <ele>1893</ele>
        <time>2024-11-28T07:48:46Z</time>
      </trkpt>
      <trkpt lat="42.97309" lon="0.31308">
        <ele>1894</ele>
        <time>2024-11-28T07:49:08Z</time>
      </trkpt>
      <trkpt lat="42.97303" lon="0.3132">
        <ele>1893</ele>
        <time>2024-11-28T07:49:48Z</time>
      </trkpt>
      <trkpt lat="42.973" lon="0.31332">
        <ele>1893</ele>
        <time>2024-11-28T07:50:00Z</time>
      </trkpt>
      <trkpt lat="42.97298" lon="0.31337">
        <ele>1892</ele>
        <time>2024-11-28T07:52:03Z</time>
      </trkpt>
      <trkpt lat="42.97294" lon="0.31341">
        <ele>1891</ele>
        <time>2024-11-28T07:52:09Z</time>
      </trkpt>
      <trkpt lat="42.97293" lon="0.31346">
        <ele>1890</ele>
        <time>2024-11-28T07:52:17Z</time>
      </trkpt>
      <trkpt lat="42.9729" lon="0.3135">
        <ele>1887</ele>
        <time>2024-11-28T07:52:25Z</time>
      </trkpt>
      <trkpt lat="42.9729" lon="0.31355">
        <ele>1886</ele>
        <time>2024-11-28T07:52:41Z</time>
      </trkpt>
      <trkpt lat="42.97289" lon="0.31359">
        <ele>1884</ele>
        <time>2024-11-28T07:52:51Z</time>
      </trkpt>
      <trkpt lat="42.97283" lon="0.31364">
        <ele>1878</ele>
        <time>2024-11-28T07:53:19Z</time>
      </trkpt>
      <trkpt lat="42.97282" lon="0.31375">
        <ele>1876</ele>
        <time>2024-11-28T07:53:29Z</time>
      </trkpt>
      <trkpt lat="42.97282" lon="0.31385">
        <ele>1874</ele>
        <time>2024-11-28T07:53:53Z</time>
      </trkpt>
      <trkpt lat="42.9728" lon="0.31396">
        <ele>1872</ele>
        <time>2024-11-28T07:54:11Z</time>
      </trkpt>
      <trkpt lat="42.97277" lon="0.31401">
        <ele>1872</ele>
        <time>2024-11-28T07:54:17Z</time>
      </trkpt>
      <trkpt lat="42.97275" lon="0.31406">
        <ele>1871</ele>
        <time>2024-11-28T07:54:23Z</time>
      </trkpt>
      <trkpt lat="42.97273" lon="0.3141">
        <ele>1871</ele>
        <time>2024-11-28T07:54:29Z</time>
      </trkpt>
      <trkpt lat="42.97263" lon="0.31431">
        <ele>1868</ele>
        <time>2024-11-28T07:54:59Z</time>
      </trkpt>
      <trkpt lat="42.97259" lon="0.31443">
        <ele>1864</ele>
        <time>2024-11-28T07:55:13Z</time>
      </trkpt>
      <trkpt lat="42.97253" lon="0.31452">
        <ele>1863</ele>
        <time>2024-11-28T07:55:27Z</time>
      </trkpt>
      <trkpt lat="42.97246" lon="0.31477">
        <ele>1857</ele>
        <time>2024-11-28T07:55:55Z</time>
      </trkpt>
      <trkpt lat="42.97244" lon="0.31491">
        <ele>1856</ele>
        <time>2024-11-28T07:56:07Z</time>
      </trkpt>
      <trkpt lat="42.97241" lon="0.31505">
        <ele>1855</ele>
        <time>2024-11-28T07:56:17Z</time>
      </trkpt>
      <trkpt lat="42.97241" lon="0.31519">
        <ele>1852</ele>
        <time>2024-11-28T07:56:39Z</time>
      </trkpt>
      <trkpt lat="42.97236" lon="0.31531">
        <ele>1852</ele>
        <time>2024-11-28T07:56:49Z</time>
      </trkpt>
      <trkpt lat="42.9723" lon="0.3154">
        <ele>1851</ele>
        <time>2024-11-28T07:57:05Z</time>
      </trkpt>
      <trkpt lat="42.97226" lon="0.31551">
        <ele>1849</ele>
        <time>2024-11-28T07:57:25Z</time>
      </trkpt>
      <trkpt lat="42.97213" lon="0.31573">
        <ele>1846</ele>
        <time>2024-11-28T07:57:55Z</time>
      </trkpt>
      <trkpt lat="42.97209" lon="0.31586">
        <ele>1843</ele>
        <time>2024-11-28T07:58:07Z</time>
      </trkpt>
      <trkpt lat="42.97202" lon="0.31597">
        <ele>1842</ele>
        <time>2024-11-28T07:58:17Z</time>
      </trkpt>
      <trkpt lat="42.97192" lon="0.31619">
        <ele>1843</ele>
        <time>2024-11-28T08:00:11Z</time>
      </trkpt>
      <trkpt lat="42.97187" lon="0.31631">
        <ele>1841</ele>
        <time>2024-11-28T08:01:07Z</time>
      </trkpt>
      <trkpt lat="42.97185" lon="0.31636">
        <ele>1835</ele>
        <time>2024-11-28T08:01:17Z</time>
      </trkpt>
      <trkpt lat="42.97183" lon="0.3164">
        <ele>1833</ele>
        <time>2024-11-28T08:01:25Z</time>
      </trkpt>
      <trkpt lat="42.97179" lon="0.31643">
        <ele>1830</ele>
        <time>2024-11-28T08:01:33Z</time>
      </trkpt>
      <trkpt lat="42.97176" lon="0.31644">
        <ele>1829</ele>
        <time>2024-11-28T08:01:39Z</time>
      </trkpt>
      <trkpt lat="42.97174" lon="0.31648">
        <ele>1827</ele>
        <time>2024-11-28T08:01:45Z</time>
      </trkpt>
      <trkpt lat="42.9717" lon="0.31651">
        <ele>1827</ele>
        <time>2024-11-28T08:01:53Z</time>
      </trkpt>
      <trkpt lat="42.97167" lon="0.3165">
        <ele>1826</ele>
        <time>2024-11-28T08:01:59Z</time>
      </trkpt>
      <trkpt lat="42.97159" lon="0.31657">
        <ele>1826</ele>
        <time>2024-11-28T08:02:47Z</time>
      </trkpt>
      <trkpt lat="42.97151" lon="0.31664">
        <ele>1821</ele>
        <time>2024-11-28T08:03:09Z</time>
      </trkpt>
      <trkpt lat="42.97144" lon="0.31671">
        <ele>1817</ele>
        <time>2024-11-28T08:03:25Z</time>
      </trkpt>
      <trkpt lat="42.97136" lon="0.31677">
        <ele>1813</ele>
        <time>2024-11-28T08:03:51Z</time>
      </trkpt>
      <trkpt lat="42.97133" lon="0.31671">
        <ele>1811</ele>
        <time>2024-11-28T08:05:07Z</time>
      </trkpt>
      <trkpt lat="42.97132" lon="0.31677">
        <ele>1811</ele>
        <time>2024-11-28T08:08:20Z</time>
      </trkpt>
      <trkpt lat="42.97127" lon="0.31691">
        <ele>1806</ele>
        <time>2024-11-28T08:08:40Z</time>
      </trkpt>
      <trkpt lat="42.97125" lon="0.31695">
        <ele>1805</ele>
        <time>2024-11-28T08:08:46Z</time>
      </trkpt>
      <trkpt lat="42.97123" lon="0.31699">
        <ele>1805</ele>
        <time>2024-11-28T08:16:36Z</time>
      </trkpt>
      <trkpt lat="42.9712" lon="0.317">
        <ele>1804</ele>
        <time>2024-11-28T08:16:44Z</time>
      </trkpt>
      <trkpt lat="42.97121" lon="0.31705">
        <ele>1803</ele>
        <time>2024-11-28T08:16:52Z</time>
      </trkpt>
      <trkpt lat="42.97119" lon="0.3171">
        <ele>1800</ele>
        <time>2024-11-28T08:17:00Z</time>
      </trkpt>
      <trkpt lat="42.9712" lon="0.31716">
        <ele>1799</ele>
        <time>2024-11-28T08:17:34Z</time>
      </trkpt>
      <trkpt lat="42.97115" lon="0.31731">
        <ele>1791</ele>
        <time>2024-11-28T08:18:04Z</time>
      </trkpt>
      <trkpt lat="42.97116" lon="0.31737">
        <ele>1790</ele>
        <time>2024-11-28T08:18:12Z</time>
      </trkpt>
      <trkpt lat="42.97114" lon="0.31741">
        <ele>1786</ele>
        <time>2024-11-28T08:18:30Z</time>
      </trkpt>
      <trkpt lat="42.97107" lon="0.31754">
        <ele>1781</ele>
        <time>2024-11-28T08:19:00Z</time>
      </trkpt>
      <trkpt lat="42.97106" lon="0.31758">
        <ele>1780</ele>
        <time>2024-11-28T08:19:14Z</time>
      </trkpt>
      <trkpt lat="42.97103" lon="0.31763">
        <ele>1778</ele>
        <time>2024-11-28T08:19:30Z</time>
      </trkpt>
      <trkpt lat="42.97102" lon="0.31767">
        <ele>1776</ele>
        <time>2024-11-28T08:19:40Z</time>
      </trkpt>
      <trkpt lat="42.97101" lon="0.31772">
        <ele>1773</ele>
        <time>2024-11-28T08:19:52Z</time>
      </trkpt>
      <trkpt lat="42.97101" lon="0.31778">
        <ele>1771</ele>
        <time>2024-11-28T08:20:02Z</time>
      </trkpt>
      <trkpt lat="42.97098" lon="0.31782">
        <ele>1770</ele>
        <time>2024-11-28T08:20:06Z</time>
      </trkpt>
      <trkpt lat="42.97095" lon="0.31785">
        <ele>1768</ele>
        <time>2024-11-28T08:20:12Z</time>
      </trkpt>
      <trkpt lat="42.97091" lon="0.31786">
        <ele>1766</ele>
        <time>2024-11-28T08:20:24Z</time>
      </trkpt>
      <trkpt lat="42.9709" lon="0.31799">
        <ele>1766</ele>
        <time>2024-11-28T08:22:12Z</time>
      </trkpt>
      <trkpt lat="42.97087" lon="0.31811">
        <ele>1764</ele>
        <time>2024-11-28T08:22:26Z</time>
      </trkpt>
      <trkpt lat="42.9708" lon="0.31821">
        <ele>1761</ele>
        <time>2024-11-28T08:22:40Z</time>
      </trkpt>
      <trkpt lat="42.97077" lon="0.31824">
        <ele>1759</ele>
        <time>2024-11-28T08:22:44Z</time>
      </trkpt>
      <trkpt lat="42.97074" lon="0.31828">
        <ele>1758</ele>
        <time>2024-11-28T08:22:51Z</time>
      </trkpt>
      <trkpt lat="42.97071" lon="0.31831">
        <ele>1756</ele>
        <time>2024-11-28T08:22:55Z</time>
      </trkpt>
      <trkpt lat="42.9707" lon="0.31836">
        <ele>1755</ele>
        <time>2024-11-28T08:22:59Z</time>
      </trkpt>
      <trkpt lat="42.97068" lon="0.3184">
        <ele>1753</ele>
        <time>2024-11-28T08:23:03Z</time>
      </trkpt>
      <trkpt lat="42.97061" lon="0.31849">
        <ele>1752</ele>
        <time>2024-11-28T08:23:15Z</time>
      </trkpt>
      <trkpt lat="42.97056" lon="0.31856">
        <ele>1750</ele>
        <time>2024-11-28T08:23:23Z</time>
      </trkpt>
      <trkpt lat="42.97053" lon="0.31861">
        <ele>1749</ele>
        <time>2024-11-28T08:23:29Z</time>
      </trkpt>
      <trkpt lat="42.97045" lon="0.31876">
        <ele>1746</ele>
        <time>2024-11-28T08:23:43Z</time>
      </trkpt>
      <trkpt lat="42.97042" lon="0.3188">
        <ele>1746</ele>
        <time>2024-11-28T08:23:47Z</time>
      </trkpt>
      <trkpt lat="42.97034" lon="0.31891">
        <ele>1746</ele>
        <time>2024-11-28T08:24:21Z</time>
      </trkpt>
      <trkpt lat="42.97029" lon="0.31901">
        <ele>1747</ele>
        <time>2024-11-28T08:24:31Z</time>
      </trkpt>
      <trkpt lat="42.97024" lon="0.31913">
        <ele>1746</ele>
        <time>2024-11-28T08:24:41Z</time>
      </trkpt>
      <trkpt lat="42.97019" lon="0.31925">
        <ele>1746</ele>
        <time>2024-11-28T08:24:51Z</time>
      </trkpt>
      <trkpt lat="42.97009" lon="0.31948">
        <ele>1746</ele>
        <time>2024-11-28T08:25:11Z</time>
      </trkpt>
      <trkpt lat="42.97005" lon="0.31959">
        <ele>1746</ele>
        <time>2024-11-28T08:25:19Z</time>
      </trkpt>
      <trkpt lat="42.96998" lon="0.31971">
        <ele>1746</ele>
        <time>2024-11-28T08:25:29Z</time>
      </trkpt>
      <trkpt lat="42.96984" lon="0.31989">
        <ele>1745</ele>
        <time>2024-11-28T08:25:59Z</time>
      </trkpt>
      <trkpt lat="42.96983" lon="0.32003">
        <ele>1743</ele>
        <time>2024-11-28T08:26:13Z</time>
      </trkpt>
      <trkpt lat="42.96982" lon="0.32015">
        <ele>1741</ele>
        <time>2024-11-28T08:26:25Z</time>
      </trkpt>
      <trkpt lat="42.96981" lon="0.32028">
        <ele>1738</ele>
        <time>2024-11-28T08:26:49Z</time>
      </trkpt>
      <trkpt lat="42.96979" lon="0.32041">
        <ele>1736</ele>
        <time>2024-11-28T08:27:01Z</time>
      </trkpt>
      <trkpt lat="42.96978" lon="0.32053">
        <ele>1733</ele>
        <time>2024-11-28T08:27:13Z</time>
      </trkpt>
      <trkpt lat="42.96978" lon="0.32067">
        <ele>1731</ele>
        <time>2024-11-28T08:27:27Z</time>
      </trkpt>
      <trkpt lat="42.96976" lon="0.32079">
        <ele>1726</ele>
        <time>2024-11-28T08:27:43Z</time>
      </trkpt>
      <trkpt lat="42.96978" lon="0.32092">
        <ele>1724</ele>
        <time>2024-11-28T08:27:55Z</time>
      </trkpt>
      <trkpt lat="42.96978" lon="0.32105">
        <ele>1720</ele>
        <time>2024-11-28T08:28:09Z</time>
      </trkpt>
      <trkpt lat="42.96977" lon="0.32118">
        <ele>1717</ele>
        <time>2024-11-28T08:28:25Z</time>
      </trkpt>
      <trkpt lat="42.96976" lon="0.32132">
        <ele>1713</ele>
        <time>2024-11-28T08:28:41Z</time>
      </trkpt>
      <trkpt lat="42.96975" lon="0.32146">
        <ele>1712</ele>
        <time>2024-11-28T08:28:55Z</time>
      </trkpt>
      <trkpt lat="42.96978" lon="0.32159">
        <ele>1708</ele>
        <time>2024-11-28T08:29:13Z</time>
      </trkpt>
      <trkpt lat="42.96972" lon="0.32169">
        <ele>1706</ele>
        <time>2024-11-28T08:29:31Z</time>
      </trkpt>
      <trkpt lat="42.96968" lon="0.32172">
        <ele>1701</ele>
        <time>2024-11-28T08:29:43Z</time>
      </trkpt>
      <trkpt lat="42.96972" lon="0.32176">
        <ele>1700</ele>
        <time>2024-11-28T08:30:21Z</time>
      </trkpt>
      <trkpt lat="42.96975" lon="0.3218">
        <ele>1699</ele>
        <time>2024-11-28T08:30:27Z</time>
      </trkpt>
      <trkpt lat="42.96975" lon="0.32185">
        <ele>1697</ele>
        <time>2024-11-28T08:30:33Z</time>
      </trkpt>
      <trkpt lat="42.96977" lon="0.3219">
        <ele>1695</ele>
        <time>2024-11-28T08:30:41Z</time>
      </trkpt>
      <trkpt lat="42.9698" lon="0.32194">
        <ele>1694</ele>
        <time>2024-11-28T08:31:13Z</time>
      </trkpt>
      <trkpt lat="42.96986" lon="0.32202">
        <ele>1691</ele>
        <time>2024-11-28T08:31:25Z</time>
      </trkpt>
      <trkpt lat="42.96987" lon="0.32207">
        <ele>1690</ele>
        <time>2024-11-28T08:31:31Z</time>
      </trkpt>
      <trkpt lat="42.96993" lon="0.3222">
        <ele>1687</ele>
        <time>2024-11-28T08:31:45Z</time>
      </trkpt>
      <trkpt lat="42.96994" lon="0.32225">
        <ele>1686</ele>
        <time>2024-11-28T08:31:49Z</time>
      </trkpt>
      <trkpt lat="42.96997" lon="0.32236">
        <ele>1686</ele>
        <time>2024-11-28T08:32:15Z</time>
      </trkpt>
      <trkpt lat="42.97003" lon="0.32245">
        <ele>1684</ele>
        <time>2024-11-28T08:32:53Z</time>
      </trkpt>
      <trkpt lat="42.97011" lon="0.32268">
        <ele>1680</ele>
        <time>2024-11-28T08:33:17Z</time>
      </trkpt>
      <trkpt lat="42.97012" lon="0.32275">
        <ele>1680</ele>
        <time>2024-11-28T08:33:23Z</time>
      </trkpt>
      <trkpt lat="42.97014" lon="0.32279">
        <ele>1680</ele>
        <time>2024-11-28T08:33:29Z</time>
      </trkpt>
      <trkpt lat="42.97013" lon="0.32284">
        <ele>1679</ele>
        <time>2024-11-28T08:34:52Z</time>
      </trkpt>
      <trkpt lat="42.97017" lon="0.32287">
        <ele>1680</ele>
        <time>2024-11-28T08:36:24Z</time>
      </trkpt>
      <trkpt lat="42.97019" lon="0.32291">
        <ele>1679</ele>
        <time>2024-11-28T08:36:28Z</time>
      </trkpt>
      <trkpt lat="42.97023" lon="0.32293">
        <ele>1678</ele>
        <time>2024-11-28T08:36:34Z</time>
      </trkpt>
      <trkpt lat="42.97024" lon="0.32299">
        <ele>1675</ele>
        <time>2024-11-28T08:37:14Z</time>
      </trkpt>
      <trkpt lat="42.97024" lon="0.32305">
        <ele>1675</ele>
        <time>2024-11-28T08:37:30Z</time>
      </trkpt>
      <trkpt lat="42.9702" lon="0.32314">
        <ele>1675</ele>
        <time>2024-11-28T08:37:40Z</time>
      </trkpt>
      <trkpt lat="42.97023" lon="0.32327">
        <ele>1673</ele>
        <time>2024-11-28T08:37:52Z</time>
      </trkpt>
      <trkpt lat="42.97024" lon="0.32356">
        <ele>1672</ele>
        <time>2024-11-28T08:38:16Z</time>
      </trkpt>
      <trkpt lat="42.97024" lon="0.32361">
        <ele>1672</ele>
        <time>2024-11-28T08:38:20Z</time>
      </trkpt>
      <trkpt lat="42.97029" lon="0.32372">
        <ele>1670</ele>
        <time>2024-11-28T08:38:30Z</time>
      </trkpt>
      <trkpt lat="42.97034" lon="0.3239">
        <ele>1669</ele>
        <time>2024-11-28T08:39:02Z</time>
      </trkpt>
      <trkpt lat="42.97037" lon="0.32415">
        <ele>1669</ele>
        <time>2024-11-28T08:39:18Z</time>
      </trkpt>
      <trkpt lat="42.97039" lon="0.3242">
        <ele>1669</ele>
        <time>2024-11-28T08:39:22Z</time>
      </trkpt>
      <trkpt lat="42.9705" lon="0.32457">
        <ele>1669</ele>
        <time>2024-11-28T08:39:48Z</time>
      </trkpt>
      <trkpt lat="42.9706" lon="0.32481">
        <ele>1669</ele>
        <time>2024-11-28T08:40:06Z</time>
      </trkpt>
      <trkpt lat="42.97069" lon="0.32505">
        <ele>1670</ele>
        <time>2024-11-28T08:40:26Z</time>
      </trkpt>
      <trkpt lat="42.97073" lon="0.32517">
        <ele>1671</ele>
        <time>2024-11-28T08:40:36Z</time>
      </trkpt>
      <trkpt lat="42.9708" lon="0.32529">
        <ele>1671</ele>
        <time>2024-11-28T08:40:52Z</time>
      </trkpt>
      <trkpt lat="42.97093" lon="0.32556">
        <ele>1673</ele>
        <time>2024-11-28T08:41:16Z</time>
      </trkpt>
      <trkpt lat="42.97094" lon="0.3256">
        <ele>1673</ele>
        <time>2024-11-28T08:41:20Z</time>
      </trkpt>
      <trkpt lat="42.97099" lon="0.32569">
        <ele>1677</ele>
        <time>2024-11-28T08:41:30Z</time>
      </trkpt>
      <trkpt lat="42.97099" lon="0.32574">
        <ele>1678</ele>
        <time>2024-11-28T08:41:34Z</time>
      </trkpt>
      <trkpt lat="42.97106" lon="0.32588">
        <ele>1679</ele>
        <time>2024-11-28T08:41:46Z</time>
      </trkpt>
      <trkpt lat="42.97108" lon="0.32594">
        <ele>1679</ele>
        <time>2024-11-28T08:42:59Z</time>
      </trkpt>
      <trkpt lat="42.97109" lon="0.32599">
        <ele>1679</ele>
        <time>2024-11-28T08:43:03Z</time>
      </trkpt>
      <trkpt lat="42.9711" lon="0.32604">
        <ele>1680</ele>
        <time>2024-11-28T08:43:07Z</time>
      </trkpt>
      <trkpt lat="42.97111" lon="0.32609">
        <ele>1680</ele>
        <time>2024-11-28T08:43:11Z</time>
      </trkpt>
      <trkpt lat="42.97112" lon="0.32614">
        <ele>1680</ele>
        <time>2024-11-28T08:43:15Z</time>
      </trkpt>
      <trkpt lat="42.97124" lon="0.32623">
        <ele>1680</ele>
        <time>2024-11-28T08:43:27Z</time>
      </trkpt>
      <trkpt lat="42.97127" lon="0.32625">
        <ele>1681</ele>
        <time>2024-11-28T08:43:31Z</time>
      </trkpt>
      <trkpt lat="42.97132" lon="0.32636">
        <ele>1682</ele>
        <time>2024-11-28T08:43:43Z</time>
      </trkpt>
      <trkpt lat="42.97134" lon="0.32642">
        <ele>1684</ele>
        <time>2024-11-28T08:43:49Z</time>
      </trkpt>
      <trkpt lat="42.9714" lon="0.32652">
        <ele>1686</ele>
        <time>2024-11-28T08:44:03Z</time>
      </trkpt>
      <trkpt lat="42.97145" lon="0.32663">
        <ele>1690</ele>
        <time>2024-11-28T08:44:19Z</time>
      </trkpt>
      <trkpt lat="42.9715" lon="0.32673">
        <ele>1692</ele>
        <time>2024-11-28T08:44:35Z</time>
      </trkpt>
      <trkpt lat="42.97156" lon="0.32683">
        <ele>1696</ele>
        <time>2024-11-28T08:44:55Z</time>
      </trkpt>
      <trkpt lat="42.97155" lon="0.32689">
        <ele>1697</ele>
        <time>2024-11-28T08:45:03Z</time>
      </trkpt>
      <trkpt lat="42.97157" lon="0.327">
        <ele>1700</ele>
        <time>2024-11-28T08:45:21Z</time>
      </trkpt>
      <trkpt lat="42.97155" lon="0.32709">
        <ele>1700</ele>
        <time>2024-11-28T08:45:33Z</time>
      </trkpt>
      <trkpt lat="42.97155" lon="0.32714">
        <ele>1700</ele>
        <time>2024-11-28T08:45:39Z</time>
      </trkpt>
      <trkpt lat="42.97158" lon="0.32716">
        <ele>1701</ele>
        <time>2024-11-28T08:45:45Z</time>
      </trkpt>
      <trkpt lat="42.97172" lon="0.32733">
        <ele>1705</ele>
        <time>2024-11-28T08:46:31Z</time>
      </trkpt>
      <trkpt lat="42.97177" lon="0.32745">
        <ele>1710</ele>
        <time>2024-11-28T08:46:51Z</time>
      </trkpt>
      <trkpt lat="42.9718" lon="0.32757">
        <ele>1713</ele>
        <time>2024-11-28T08:47:39Z</time>
      </trkpt>
      <trkpt lat="42.97186" lon="0.32767">
        <ele>1717</ele>
        <time>2024-11-28T08:47:57Z</time>
      </trkpt>
      <trkpt lat="42.9719" lon="0.32778">
        <ele>1721</ele>
        <time>2024-11-28T08:48:25Z</time>
      </trkpt>
      <trkpt lat="42.97195" lon="0.32789">
        <ele>1728</ele>
        <time>2024-11-28T08:49:05Z</time>
      </trkpt>
      <trkpt lat="42.97197" lon="0.32801">
        <ele>1730</ele>
        <time>2024-11-28T08:49:27Z</time>
      </trkpt>
      <trkpt lat="42.972" lon="0.32804">
        <ele>1735</ele>
        <time>2024-11-28T08:49:35Z</time>
      </trkpt>
      <trkpt lat="42.97211" lon="0.32808">
        <ele>1737</ele>
        <time>2024-11-28T08:51:19Z</time>
      </trkpt>
      <trkpt lat="42.97205" lon="0.32818">
        <ele>1738</ele>
        <time>2024-11-28T08:51:37Z</time>
      </trkpt>
      <trkpt lat="42.97204" lon="0.3283">
        <ele>1746</ele>
        <time>2024-11-28T08:51:55Z</time>
      </trkpt>
      <trkpt lat="42.97196" lon="0.32838">
        <ele>1751</ele>
        <time>2024-11-28T08:52:27Z</time>
      </trkpt>
      <trkpt lat="42.97198" lon="0.32842">
        <ele>1754</ele>
        <time>2024-11-28T08:53:01Z</time>
      </trkpt>
      <trkpt lat="42.972" lon="0.32846">
        <ele>1755</ele>
        <time>2024-11-28T08:53:07Z</time>
      </trkpt>
      <trkpt lat="42.97201" lon="0.32852">
        <ele>1756</ele>
        <time>2024-11-28T08:53:13Z</time>
      </trkpt>
      <trkpt lat="42.97198" lon="0.32857">
        <ele>1759</ele>
        <time>2024-11-28T08:53:19Z</time>
      </trkpt>
      <trkpt lat="42.97195" lon="0.3286">
        <ele>1759</ele>
        <time>2024-11-28T08:53:27Z</time>
      </trkpt>
      <trkpt lat="42.97191" lon="0.32873">
        <ele>1760</ele>
        <time>2024-11-28T08:54:21Z</time>
      </trkpt>
      <trkpt lat="42.9718" lon="0.3292">
        <ele>1760</ele>
        <time>2024-11-28T08:54:55Z</time>
      </trkpt>
      <trkpt lat="42.97169" lon="0.32951">
        <ele>1765</ele>
        <time>2024-11-28T08:55:25Z</time>
      </trkpt>
      <trkpt lat="42.97164" lon="0.32961">
        <ele>1767</ele>
        <time>2024-11-28T08:55:35Z</time>
      </trkpt>
      <trkpt lat="42.97162" lon="0.32967">
        <ele>1767</ele>
        <time>2024-11-28T08:56:09Z</time>
      </trkpt>
      <trkpt lat="42.9716" lon="0.32978">
        <ele>1768</ele>
        <time>2024-11-28T08:56:19Z</time>
      </trkpt>
      <trkpt lat="42.97154" lon="0.3299">
        <ele>1768</ele>
        <time>2024-11-28T08:56:29Z</time>
      </trkpt>
      <trkpt lat="42.97148" lon="0.32995">
        <ele>1771</ele>
        <time>2024-11-28T08:56:43Z</time>
      </trkpt>
      <trkpt lat="42.97151" lon="0.33002">
        <ele>1774</ele>
        <time>2024-11-28T09:03:44Z</time>
      </trkpt>
      <trkpt lat="42.97154" lon="0.33008">
        <ele>1772</ele>
        <time>2024-11-28T09:03:48Z</time>
      </trkpt>
      <trkpt lat="42.97157" lon="0.33013">
        <ele>1772</ele>
        <time>2024-11-28T09:03:52Z</time>
      </trkpt>
      <trkpt lat="42.97161" lon="0.33018">
        <ele>1771</ele>
        <time>2024-11-28T09:03:56Z</time>
      </trkpt>
      <trkpt lat="42.97166" lon="0.33021">
        <ele>1770</ele>
        <time>2024-11-28T09:04:00Z</time>
      </trkpt>
      <trkpt lat="42.97168" lon="0.33026">
        <ele>1769</ele>
        <time>2024-11-28T09:04:04Z</time>
      </trkpt>
      <trkpt lat="42.97175" lon="0.33043">
        <ele>1767</ele>
        <time>2024-11-28T09:04:16Z</time>
      </trkpt>
      <trkpt lat="42.97184" lon="0.33061">
        <ele>1766</ele>
        <time>2024-11-28T09:04:33Z</time>
      </trkpt>
      <trkpt lat="42.9719" lon="0.33085">
        <ele>1767</ele>
        <time>2024-11-28T09:04:57Z</time>
      </trkpt>
      <trkpt lat="42.97198" lon="0.33102">
        <ele>1764</ele>
        <time>2024-11-28T09:05:13Z</time>
      </trkpt>
      <trkpt lat="42.97199" lon="0.33107">
        <ele>1763</ele>
        <time>2024-11-28T09:05:17Z</time>
      </trkpt>
      <trkpt lat="42.97198" lon="0.33113">
        <ele>1762</ele>
        <time>2024-11-28T09:05:20Z</time>
      </trkpt>
      <trkpt lat="42.97198" lon="0.33123">
        <ele>1760</ele>
        <time>2024-11-28T09:05:28Z</time>
      </trkpt>
      <trkpt lat="42.97195" lon="0.33134">
        <ele>1760</ele>
        <time>2024-11-28T09:05:36Z</time>
      </trkpt>
      <trkpt lat="42.97195" lon="0.3314">
        <ele>1760</ele>
        <time>2024-11-28T09:05:40Z</time>
      </trkpt>
      <trkpt lat="42.97195" lon="0.33146">
        <ele>1760</ele>
        <time>2024-11-28T09:05:46Z</time>
      </trkpt>
      <trkpt lat="42.97196" lon="0.33152">
        <ele>1758</ele>
        <time>2024-11-28T09:05:50Z</time>
      </trkpt>
      <trkpt lat="42.97206" lon="0.33181">
        <ele>1756</ele>
        <time>2024-11-28T09:06:10Z</time>
      </trkpt>
      <trkpt lat="42.97208" lon="0.33185">
        <ele>1756</ele>
        <time>2024-11-28T09:06:14Z</time>
      </trkpt>
      <trkpt lat="42.97211" lon="0.3319">
        <ele>1756</ele>
        <time>2024-11-28T09:06:18Z</time>
      </trkpt>
      <trkpt lat="42.97211" lon="0.33195">
        <ele>1757</ele>
        <time>2024-11-28T09:06:21Z</time>
      </trkpt>
      <trkpt lat="42.97212" lon="0.33202">
        <ele>1758</ele>
        <time>2024-11-28T09:06:25Z</time>
      </trkpt>
      <trkpt lat="42.97212" lon="0.33208">
        <ele>1758</ele>
        <time>2024-11-28T09:06:29Z</time>
      </trkpt>
      <trkpt lat="42.97213" lon="0.33214">
        <ele>1759</ele>
        <time>2024-11-28T09:06:33Z</time>
      </trkpt>
      <trkpt lat="42.97215" lon="0.33249">
        <ele>1761</ele>
        <time>2024-11-28T09:06:57Z</time>
      </trkpt>
      <trkpt lat="42.97217" lon="0.33255">
        <ele>1761</ele>
        <time>2024-11-28T09:07:01Z</time>
      </trkpt>
      <trkpt lat="42.97221" lon="0.33273">
        <ele>1762</ele>
        <time>2024-11-28T09:07:13Z</time>
      </trkpt>
      <trkpt lat="42.97226" lon="0.33285">
        <ele>1764</ele>
        <time>2024-11-28T09:07:21Z</time>
      </trkpt>
      <trkpt lat="42.97228" lon="0.33298">
        <ele>1765</ele>
        <time>2024-11-28T09:07:31Z</time>
      </trkpt>
      <trkpt lat="42.97229" lon="0.3331">
        <ele>1767</ele>
        <time>2024-11-28T09:07:41Z</time>
      </trkpt>
      <trkpt lat="42.97231" lon="0.33323">
        <ele>1768</ele>
        <time>2024-11-28T09:07:57Z</time>
      </trkpt>
      <trkpt lat="42.97238" lon="0.33321">
        <ele>1770</ele>
        <time>2024-11-28T09:08:09Z</time>
      </trkpt>
      <trkpt lat="42.97239" lon="0.33327">
        <ele>1771</ele>
        <time>2024-11-28T09:08:15Z</time>
      </trkpt>
      <trkpt lat="42.97242" lon="0.3333">
        <ele>1774</ele>
        <time>2024-11-28T09:08:27Z</time>
      </trkpt>
      <trkpt lat="42.97247" lon="0.33331">
        <ele>1776</ele>
        <time>2024-11-28T09:08:35Z</time>
      </trkpt>
      <trkpt lat="42.9725" lon="0.33332">
        <ele>1777</ele>
        <time>2024-11-28T09:08:53Z</time>
      </trkpt>
      <trkpt lat="42.97249" lon="0.33346">
        <ele>1778</ele>
        <time>2024-11-28T09:09:33Z</time>
      </trkpt>
      <trkpt lat="42.97247" lon="0.33359">
        <ele>1780</ele>
        <time>2024-11-28T09:09:43Z</time>
      </trkpt>
      <trkpt lat="42.97247" lon="0.33369">
        <ele>1782</ele>
        <time>2024-11-28T09:09:51Z</time>
      </trkpt>
      <trkpt lat="42.97247" lon="0.33373">
        <ele>1783</ele>
        <time>2024-11-28T09:09:57Z</time>
      </trkpt>
      <trkpt lat="42.97242" lon="0.33388">
        <ele>1785</ele>
        <time>2024-11-28T09:10:09Z</time>
      </trkpt>
      <trkpt lat="42.97243" lon="0.33393">
        <ele>1785</ele>
        <time>2024-11-28T09:10:13Z</time>
      </trkpt>
      <trkpt lat="42.97242" lon="0.33404">
        <ele>1784</ele>
        <time>2024-11-28T09:10:21Z</time>
      </trkpt>
      <trkpt lat="42.97246" lon="0.3342">
        <ele>1786</ele>
        <time>2024-11-28T09:10:33Z</time>
      </trkpt>
      <trkpt lat="42.97243" lon="0.33436">
        <ele>1787</ele>
        <time>2024-11-28T09:10:45Z</time>
      </trkpt>
      <trkpt lat="42.97247" lon="0.33472">
        <ele>1787</ele>
        <time>2024-11-28T09:11:13Z</time>
      </trkpt>
      <trkpt lat="42.97249" lon="0.3348">
        <ele>1787</ele>
        <time>2024-11-28T09:11:27Z</time>
      </trkpt>
      <trkpt lat="42.97253" lon="0.33481">
        <ele>1786</ele>
        <time>2024-11-28T09:11:35Z</time>
      </trkpt>
      <trkpt lat="42.9725" lon="0.33468">
        <ele>1786</ele>
        <time>2024-11-28T09:14:39Z</time>
      </trkpt>
      <trkpt lat="42.97246" lon="0.33456">
        <ele>1786</ele>
        <time>2024-11-28T09:14:57Z</time>
      </trkpt>
      <trkpt lat="42.97245" lon="0.33452">
        <ele>1788</ele>
        <time>2024-11-28T09:20:33Z</time>
      </trkpt>
      <trkpt lat="42.97244" lon="0.33447">
        <ele>1788</ele>
        <time>2024-11-28T09:20:37Z</time>
      </trkpt>
      <trkpt lat="42.97245" lon="0.33442">
        <ele>1787</ele>
        <time>2024-11-28T09:21:39Z</time>
      </trkpt>
      <trkpt lat="42.97244" lon="0.33435">
        <ele>1788</ele>
        <time>2024-11-28T09:24:11Z</time>
      </trkpt>
      <trkpt lat="42.97245" lon="0.33431">
        <ele>1788</ele>
        <time>2024-11-28T09:24:15Z</time>
      </trkpt>
      <trkpt lat="42.97247" lon="0.33425">
        <ele>1788</ele>
        <time>2024-11-28T09:24:55Z</time>
      </trkpt>
      <trkpt lat="42.97245" lon="0.33413">
        <ele>1788</ele>
        <time>2024-11-28T09:25:17Z</time>
      </trkpt>
      <trkpt lat="42.97244" lon="0.33407">
        <ele>1787</ele>
        <time>2024-11-28T09:25:21Z</time>
      </trkpt>
      <trkpt lat="42.97246" lon="0.33402">
        <ele>1786</ele>
        <time>2024-11-28T09:25:25Z</time>
      </trkpt>
      <trkpt lat="42.97247" lon="0.33398">
        <ele>1786</ele>
        <time>2024-11-28T09:25:29Z</time>
      </trkpt>
      <trkpt lat="42.97245" lon="0.33392">
        <ele>1786</ele>
        <time>2024-11-28T09:25:33Z</time>
      </trkpt>
      <trkpt lat="42.97243" lon="0.3338">
        <ele>1785</ele>
        <time>2024-11-28T09:25:41Z</time>
      </trkpt>
      <trkpt lat="42.97244" lon="0.33375">
        <ele>1784</ele>
        <time>2024-11-28T09:25:45Z</time>
      </trkpt>
      <trkpt lat="42.97245" lon="0.3337">
        <ele>1784</ele>
        <time>2024-11-28T09:25:49Z</time>
      </trkpt>
      <trkpt lat="42.97243" lon="0.33364">
        <ele>1783</ele>
        <time>2024-11-28T09:25:55Z</time>
      </trkpt>
      <trkpt lat="42.97243" lon="0.33359">
        <ele>1782</ele>
        <time>2024-11-28T09:25:59Z</time>
      </trkpt>
      <trkpt lat="42.97243" lon="0.33353">
        <ele>1781</ele>
        <time>2024-11-28T09:26:03Z</time>
      </trkpt>
      <trkpt lat="42.97243" lon="0.33348">
        <ele>1781</ele>
        <time>2024-11-28T09:26:07Z</time>
      </trkpt>
      <trkpt lat="42.97243" lon="0.33338">
        <ele>1779</ele>
        <time>2024-11-28T09:26:15Z</time>
      </trkpt>
      <trkpt lat="42.97239" lon="0.33325">
        <ele>1776</ele>
        <time>2024-11-28T09:26:27Z</time>
      </trkpt>
      <trkpt lat="42.97234" lon="0.33326">
        <ele>1774</ele>
        <time>2024-11-28T09:26:33Z</time>
      </trkpt>
      <trkpt lat="42.97232" lon="0.33321">
        <ele>1772</ele>
        <time>2024-11-28T09:26:39Z</time>
      </trkpt>
      <trkpt lat="42.9723" lon="0.33316">
        <ele>1771</ele>
        <time>2024-11-28T09:26:45Z</time>
      </trkpt>
      <trkpt lat="42.97228" lon="0.33309">
        <ele>1769</ele>
        <time>2024-11-28T09:27:01Z</time>
      </trkpt>
      <trkpt lat="42.97227" lon="0.33304">
        <ele>1767</ele>
        <time>2024-11-28T09:27:05Z</time>
      </trkpt>
      <trkpt lat="42.97227" lon="0.33298">
        <ele>1766</ele>
        <time>2024-11-28T09:27:09Z</time>
      </trkpt>
      <trkpt lat="42.97225" lon="0.33293">
        <ele>1765</ele>
        <time>2024-11-28T09:27:13Z</time>
      </trkpt>
      <trkpt lat="42.97214" lon="0.33252">
        <ele>1765</ele>
        <time>2024-11-28T09:27:43Z</time>
      </trkpt>
      <trkpt lat="42.97213" lon="0.33212">
        <ele>1764</ele>
        <time>2024-11-28T09:28:09Z</time>
      </trkpt>
      <trkpt lat="42.97211" lon="0.33188">
        <ele>1760</ele>
        <time>2024-11-28T09:28:25Z</time>
      </trkpt>
      <trkpt lat="42.97209" lon="0.33175">
        <ele>1758</ele>
        <time>2024-11-28T09:28:33Z</time>
      </trkpt>
      <trkpt lat="42.97197" lon="0.33153">
        <ele>1759</ele>
        <time>2024-11-28T09:28:49Z</time>
      </trkpt>
      <trkpt lat="42.97194" lon="0.33144">
        <ele>1760</ele>
        <time>2024-11-28T09:28:57Z</time>
      </trkpt>
      <trkpt lat="42.97196" lon="0.3313">
        <ele>1760</ele>
        <time>2024-11-28T09:29:35Z</time>
      </trkpt>
      <trkpt lat="42.97196" lon="0.33126">
        <ele>1761</ele>
        <time>2024-11-28T09:32:43Z</time>
      </trkpt>
      <trkpt lat="42.97198" lon="0.33119">
        <ele>1761</ele>
        <time>2024-11-28T09:33:19Z</time>
      </trkpt>
      <trkpt lat="42.97201" lon="0.33109">
        <ele>1761</ele>
        <time>2024-11-28T09:33:27Z</time>
      </trkpt>
      <trkpt lat="42.972" lon="0.33104">
        <ele>1763</ele>
        <time>2024-11-28T09:33:33Z</time>
      </trkpt>
      <trkpt lat="42.97199" lon="0.33092">
        <ele>1766</ele>
        <time>2024-11-28T09:33:45Z</time>
      </trkpt>
      <trkpt lat="42.97196" lon="0.3308">
        <ele>1767</ele>
        <time>2024-11-28T09:33:55Z</time>
      </trkpt>
      <trkpt lat="42.97194" lon="0.33074">
        <ele>1768</ele>
        <time>2024-11-28T09:33:59Z</time>
      </trkpt>
      <trkpt lat="42.97191" lon="0.33071">
        <ele>1768</ele>
        <time>2024-11-28T09:34:03Z</time>
      </trkpt>
      <trkpt lat="42.9719" lon="0.33066">
        <ele>1767</ele>
        <time>2024-11-28T09:34:07Z</time>
      </trkpt>
      <trkpt lat="42.97186" lon="0.33063">
        <ele>1767</ele>
        <time>2024-11-28T09:34:29Z</time>
      </trkpt>
      <trkpt lat="42.97183" lon="0.33058">
        <ele>1768</ele>
        <time>2024-11-28T09:34:33Z</time>
      </trkpt>
      <trkpt lat="42.97181" lon="0.33054">
        <ele>1769</ele>
        <time>2024-11-28T09:34:37Z</time>
      </trkpt>
      <trkpt lat="42.97178" lon="0.33049">
        <ele>1770</ele>
        <time>2024-11-28T09:35:33Z</time>
      </trkpt>
      <trkpt lat="42.97173" lon="0.33038">
        <ele>1770</ele>
        <time>2024-11-28T09:35:41Z</time>
      </trkpt>
      <trkpt lat="42.97172" lon="0.33031">
        <ele>1770</ele>
        <time>2024-11-28T09:35:45Z</time>
      </trkpt>
      <trkpt lat="42.97171" lon="0.33025">
        <ele>1771</ele>
        <time>2024-11-28T09:35:49Z</time>
      </trkpt>
      <trkpt lat="42.97168" lon="0.33021">
        <ele>1771</ele>
        <time>2024-11-28T09:35:53Z</time>
      </trkpt>
      <trkpt lat="42.97164" lon="0.33018">
        <ele>1772</ele>
        <time>2024-11-28T09:35:57Z</time>
      </trkpt>
      <trkpt lat="42.97158" lon="0.33012">
        <ele>1772</ele>
        <time>2024-11-28T09:36:05Z</time>
      </trkpt>
      <trkpt lat="42.97155" lon="0.33008">
        <ele>1773</ele>
        <time>2024-11-28T09:36:09Z</time>
      </trkpt>
      <trkpt lat="42.97153" lon="0.33004">
        <ele>1773</ele>
        <time>2024-11-28T09:36:13Z</time>
      </trkpt>
      <trkpt lat="42.97152" lon="0.32998">
        <ele>1774</ele>
        <time>2024-11-28T09:36:17Z</time>
      </trkpt>
      <trkpt lat="42.9715" lon="0.32994">
        <ele>1775</ele>
        <time>2024-11-28T09:36:23Z</time>
      </trkpt>
      <trkpt lat="42.97146" lon="0.32994">
        <ele>1776</ele>
        <time>2024-11-28T09:36:35Z</time>
      </trkpt>
      <trkpt lat="42.97147" lon="0.32994">
        <ele>1774</ele>
        <time>2024-11-28T10:02:02Z</time>
      </trkpt>
      <trkpt lat="42.9715" lon="0.32995">
        <ele>1770</ele>
        <time>2024-11-28T10:53:29Z</time>
      </trkpt>
      <trkpt lat="42.97156" lon="0.32996">
        <ele>1770</ele>
        <time>2024-11-28T10:53:35Z</time>
      </trkpt>
      <trkpt lat="42.9716" lon="0.32991">
        <ele>1769</ele>
        <time>2024-11-28T10:53:41Z</time>
      </trkpt>
      <trkpt lat="42.97161" lon="0.32987">
        <ele>1768</ele>
        <time>2024-11-28T10:53:45Z</time>
      </trkpt>
      <trkpt lat="42.97163" lon="0.3298">
        <ele>1767</ele>
        <time>2024-11-28T10:53:51Z</time>
      </trkpt>
      <trkpt lat="42.97168" lon="0.32971">
        <ele>1766</ele>
        <time>2024-11-28T10:54:03Z</time>
      </trkpt>
      <trkpt lat="42.97172" lon="0.3296">
        <ele>1764</ele>
        <time>2024-11-28T10:54:15Z</time>
      </trkpt>
      <trkpt lat="42.97172" lon="0.32955">
        <ele>1764</ele>
        <time>2024-11-28T10:54:35Z</time>
      </trkpt>
      <trkpt lat="42.97174" lon="0.32944">
        <ele>1764</ele>
        <time>2024-11-28T10:54:47Z</time>
      </trkpt>
      <trkpt lat="42.97175" lon="0.32937">
        <ele>1763</ele>
        <time>2024-11-28T10:54:53Z</time>
      </trkpt>
      <trkpt lat="42.97175" lon="0.32932">
        <ele>1762</ele>
        <time>2024-11-28T10:54:57Z</time>
      </trkpt>
      <trkpt lat="42.97177" lon="0.32927">
        <ele>1762</ele>
        <time>2024-11-28T10:55:01Z</time>
      </trkpt>
      <trkpt lat="42.97179" lon="0.32922">
        <ele>1762</ele>
        <time>2024-11-28T10:55:05Z</time>
      </trkpt>
      <trkpt lat="42.97188" lon="0.32895">
        <ele>1759</ele>
        <time>2024-11-28T10:55:25Z</time>
      </trkpt>
      <trkpt lat="42.9719" lon="0.32891">
        <ele>1758</ele>
        <time>2024-11-28T10:55:29Z</time>
      </trkpt>
      <trkpt lat="42.97197" lon="0.32875">
        <ele>1757</ele>
        <time>2024-11-28T10:55:41Z</time>
      </trkpt>
      <trkpt lat="42.97207" lon="0.32864">
        <ele>1757</ele>
        <time>2024-11-28T10:55:53Z</time>
      </trkpt>
      <trkpt lat="42.97207" lon="0.32853">
        <ele>1757</ele>
        <time>2024-11-28T10:56:01Z</time>
      </trkpt>
      <trkpt lat="42.97199" lon="0.32835">
        <ele>1752</ele>
        <time>2024-11-28T10:56:21Z</time>
      </trkpt>
      <trkpt lat="42.97195" lon="0.32834">
        <ele>1752</ele>
        <time>2024-11-28T10:56:25Z</time>
      </trkpt>
      <trkpt lat="42.97198" lon="0.32829">
        <ele>1749</ele>
        <time>2024-11-28T10:56:31Z</time>
      </trkpt>
      <trkpt lat="42.97199" lon="0.32822">
        <ele>1747</ele>
        <time>2024-11-28T10:56:37Z</time>
      </trkpt>
      <trkpt lat="42.97199" lon="0.32817">
        <ele>1746</ele>
        <time>2024-11-28T10:56:41Z</time>
      </trkpt>
      <trkpt lat="42.9721" lon="0.3281">
        <ele>1742</ele>
        <time>2024-11-28T10:56:53Z</time>
      </trkpt>
      <trkpt lat="42.97208" lon="0.32805">
        <ele>1741</ele>
        <time>2024-11-28T10:56:59Z</time>
      </trkpt>
      <trkpt lat="42.97206" lon="0.328">
        <ele>1739</ele>
        <time>2024-11-28T10:57:05Z</time>
      </trkpt>
      <trkpt lat="42.97203" lon="0.32797">
        <ele>1738</ele>
        <time>2024-11-28T10:57:11Z</time>
      </trkpt>
      <trkpt lat="42.97202" lon="0.32792">
        <ele>1736</ele>
        <time>2024-11-28T10:57:15Z</time>
      </trkpt>
      <trkpt lat="42.97202" lon="0.32787">
        <ele>1734</ele>
        <time>2024-11-28T10:57:21Z</time>
      </trkpt>
      <trkpt lat="42.97199" lon="0.32783">
        <ele>1732</ele>
        <time>2024-11-28T10:57:27Z</time>
      </trkpt>
      <trkpt lat="42.97196" lon="0.32778">
        <ele>1731</ele>
        <time>2024-11-28T10:57:33Z</time>
      </trkpt>
      <trkpt lat="42.97192" lon="0.32776">
        <ele>1729</ele>
        <time>2024-11-28T10:57:37Z</time>
      </trkpt>
      <trkpt lat="42.97186" lon="0.32768">
        <ele>1725</ele>
        <time>2024-11-28T10:57:47Z</time>
      </trkpt>
      <trkpt lat="42.97182" lon="0.32765">
        <ele>1724</ele>
        <time>2024-11-28T10:57:53Z</time>
      </trkpt>
      <trkpt lat="42.97179" lon="0.32756">
        <ele>1721</ele>
        <time>2024-11-28T10:58:01Z</time>
      </trkpt>
      <trkpt lat="42.97173" lon="0.3274">
        <ele>1716</ele>
        <time>2024-11-28T10:58:15Z</time>
      </trkpt>
      <trkpt lat="42.97171" lon="0.32736">
        <ele>1714</ele>
        <time>2024-11-28T10:59:25Z</time>
      </trkpt>
      <trkpt lat="42.97164" lon="0.32727">
        <ele>1714</ele>
        <time>2024-11-28T11:02:05Z</time>
      </trkpt>
      <trkpt lat="42.97162" lon="0.32714">
        <ele>1710</ele>
        <time>2024-11-28T11:02:15Z</time>
      </trkpt>
      <trkpt lat="42.97161" lon="0.32701">
        <ele>1706</ele>
        <time>2024-11-28T11:02:25Z</time>
      </trkpt>
      <trkpt lat="42.97157" lon="0.32689">
        <ele>1702</ele>
        <time>2024-11-28T11:02:37Z</time>
      </trkpt>
      <trkpt lat="42.97156" lon="0.32683">
        <ele>1701</ele>
        <time>2024-11-28T11:02:43Z</time>
      </trkpt>
      <trkpt lat="42.97152" lon="0.32681">
        <ele>1699</ele>
        <time>2024-11-28T11:02:47Z</time>
      </trkpt>
      <trkpt lat="42.97148" lon="0.32677">
        <ele>1698</ele>
        <time>2024-11-28T11:02:53Z</time>
      </trkpt>
      <trkpt lat="42.97132" lon="0.3264">
        <ele>1684</ele>
        <time>2024-11-28T11:03:23Z</time>
      </trkpt>
      <trkpt lat="42.9713" lon="0.32635">
        <ele>1683</ele>
        <time>2024-11-28T11:03:25Z</time>
      </trkpt>
      <trkpt lat="42.97128" lon="0.32631">
        <ele>1682</ele>
        <time>2024-11-28T11:03:27Z</time>
      </trkpt>
      <trkpt lat="42.97124" lon="0.32623">
        <ele>1681</ele>
        <time>2024-11-28T11:03:31Z</time>
      </trkpt>
      <trkpt lat="42.97118" lon="0.32608">
        <ele>1679</ele>
        <time>2024-11-28T11:03:37Z</time>
      </trkpt>
      <trkpt lat="42.97112" lon="0.32599">
        <ele>1678</ele>
        <time>2024-11-28T11:03:43Z</time>
      </trkpt>
      <trkpt lat="42.97111" lon="0.32595">
        <ele>1678</ele>
        <time>2024-11-28T11:03:47Z</time>
      </trkpt>
      <trkpt lat="42.97103" lon="0.32574">
        <ele>1677</ele>
        <time>2024-11-28T11:04:03Z</time>
      </trkpt>
      <trkpt lat="42.971" lon="0.32569">
        <ele>1677</ele>
        <time>2024-11-28T11:04:07Z</time>
      </trkpt>
      <trkpt lat="42.97094" lon="0.3256">
        <ele>1676</ele>
        <time>2024-11-28T11:04:15Z</time>
      </trkpt>
      <trkpt lat="42.97084" lon="0.32535">
        <ele>1671</ele>
        <time>2024-11-28T11:04:35Z</time>
      </trkpt>
      <trkpt lat="42.97081" lon="0.32532">
        <ele>1670</ele>
        <time>2024-11-28T11:04:39Z</time>
      </trkpt>
      <trkpt lat="42.97069" lon="0.32513">
        <ele>1669</ele>
        <time>2024-11-28T11:04:53Z</time>
      </trkpt>
      <trkpt lat="42.97068" lon="0.32506">
        <ele>1669</ele>
        <time>2024-11-28T11:04:57Z</time>
      </trkpt>
      <trkpt lat="42.97061" lon="0.3249">
        <ele>1668</ele>
        <time>2024-11-28T11:05:09Z</time>
      </trkpt>
      <trkpt lat="42.97057" lon="0.32478">
        <ele>1668</ele>
        <time>2024-11-28T11:05:17Z</time>
      </trkpt>
      <trkpt lat="42.97055" lon="0.32473">
        <ele>1668</ele>
        <time>2024-11-28T11:05:31Z</time>
      </trkpt>
      <trkpt lat="42.97051" lon="0.32461">
        <ele>1669</ele>
        <time>2024-11-28T11:07:27Z</time>
      </trkpt>
      <trkpt lat="42.97048" lon="0.32448">
        <ele>1669</ele>
        <time>2024-11-28T11:07:55Z</time>
      </trkpt>
      <trkpt lat="42.97043" lon="0.32435">
        <ele>1669</ele>
        <time>2024-11-28T11:08:07Z</time>
      </trkpt>
      <trkpt lat="42.97035" lon="0.32398">
        <ele>1668</ele>
        <time>2024-11-28T11:08:33Z</time>
      </trkpt>
      <trkpt lat="42.97031" lon="0.32387">
        <ele>1669</ele>
        <time>2024-11-28T11:08:41Z</time>
      </trkpt>
      <trkpt lat="42.97024" lon="0.3236">
        <ele>1670</ele>
        <time>2024-11-28T11:09:01Z</time>
      </trkpt>
      <trkpt lat="42.97023" lon="0.32346">
        <ele>1671</ele>
        <time>2024-11-28T11:09:13Z</time>
      </trkpt>
      <trkpt lat="42.97023" lon="0.32331">
        <ele>1671</ele>
        <time>2024-11-28T11:09:25Z</time>
      </trkpt>
      <trkpt lat="42.97023" lon="0.32325">
        <ele>1672</ele>
        <time>2024-11-28T11:09:31Z</time>
      </trkpt>
      <trkpt lat="42.9702" lon="0.32317">
        <ele>1673</ele>
        <time>2024-11-28T11:09:39Z</time>
      </trkpt>
      <trkpt lat="42.97019" lon="0.32311">
        <ele>1674</ele>
        <time>2024-11-28T11:09:45Z</time>
      </trkpt>
      <trkpt lat="42.97021" lon="0.32306">
        <ele>1674</ele>
        <time>2024-11-28T11:09:51Z</time>
      </trkpt>
      <trkpt lat="42.97023" lon="0.323">
        <ele>1673</ele>
        <time>2024-11-28T11:09:57Z</time>
      </trkpt>
      <trkpt lat="42.97023" lon="0.32295">
        <ele>1673</ele>
        <time>2024-11-28T11:10:01Z</time>
      </trkpt>
      <trkpt lat="42.97023" lon="0.32296">
        <ele>1673</ele>
        <time>2024-11-28T11:10:07Z</time>
      </trkpt>
      <trkpt lat="42.97022" lon="0.323">
        <ele>1673</ele>
        <time>2024-11-28T11:10:34Z</time>
      </trkpt>
      <trkpt lat="42.97018" lon="0.32304">
        <ele>1671</ele>
        <time>2024-11-28T11:10:40Z</time>
      </trkpt>
      <trkpt lat="42.97016" lon="0.32308">
        <ele>1670</ele>
        <time>2024-11-28T11:10:46Z</time>
      </trkpt>
      <trkpt lat="42.97012" lon="0.32309">
        <ele>1667</ele>
        <time>2024-11-28T11:10:52Z</time>
      </trkpt>
      <trkpt lat="42.97012" lon="0.32316">
        <ele>1667</ele>
        <time>2024-11-28T11:11:18Z</time>
      </trkpt>
      <trkpt lat="42.97009" lon="0.32318">
        <ele>1665</ele>
        <time>2024-11-28T11:11:24Z</time>
      </trkpt>
      <trkpt lat="42.97004" lon="0.3232">
        <ele>1662</ele>
        <time>2024-11-28T11:11:32Z</time>
      </trkpt>
      <trkpt lat="42.96997" lon="0.32305">
        <ele>1660</ele>
        <time>2024-11-28T11:11:44Z</time>
      </trkpt>
      <trkpt lat="42.96994" lon="0.32303">
        <ele>1659</ele>
        <time>2024-11-28T11:11:52Z</time>
      </trkpt>
      <trkpt lat="42.96989" lon="0.32296">
        <ele>1656</ele>
        <time>2024-11-28T11:12:02Z</time>
      </trkpt>
      <trkpt lat="42.96984" lon="0.32296">
        <ele>1655</ele>
        <time>2024-11-28T11:12:14Z</time>
      </trkpt>
      <trkpt lat="42.96981" lon="0.32293">
        <ele>1653</ele>
        <time>2024-11-28T11:12:20Z</time>
      </trkpt>
      <trkpt lat="42.96978" lon="0.32289">
        <ele>1652</ele>
        <time>2024-11-28T11:12:50Z</time>
      </trkpt>
      <trkpt lat="42.96974" lon="0.32288">
        <ele>1651</ele>
        <time>2024-11-28T11:12:56Z</time>
      </trkpt>
      <trkpt lat="42.96966" lon="0.32283">
        <ele>1649</ele>
        <time>2024-11-28T11:13:04Z</time>
      </trkpt>
      <trkpt lat="42.96953" lon="0.32276">
        <ele>1647</ele>
        <time>2024-11-28T11:13:18Z</time>
      </trkpt>
      <trkpt lat="42.96945" lon="0.32269">
        <ele>1644</ele>
        <time>2024-11-28T11:13:28Z</time>
      </trkpt>
      <trkpt lat="42.96936" lon="0.32268">
        <ele>1642</ele>
        <time>2024-11-28T11:13:38Z</time>
      </trkpt>
      <trkpt lat="42.96929" lon="0.32262">
        <ele>1641</ele>
        <time>2024-11-28T11:14:00Z</time>
      </trkpt>
      <trkpt lat="42.96919" lon="0.32257">
        <ele>1638</ele>
        <time>2024-11-28T11:14:12Z</time>
      </trkpt>
      <trkpt lat="42.96911" lon="0.32252">
        <ele>1635</ele>
        <time>2024-11-28T11:14:22Z</time>
      </trkpt>
      <trkpt lat="42.96902" lon="0.32251">
        <ele>1632</ele>
        <time>2024-11-28T11:14:36Z</time>
      </trkpt>
      <trkpt lat="42.96893" lon="0.32244">
        <ele>1631</ele>
        <time>2024-11-28T11:14:48Z</time>
      </trkpt>
      <trkpt lat="42.96886" lon="0.32236">
        <ele>1626</ele>
        <time>2024-11-28T11:14:58Z</time>
      </trkpt>
      <trkpt lat="42.96876" lon="0.32235">
        <ele>1624</ele>
        <time>2024-11-28T11:15:08Z</time>
      </trkpt>
      <trkpt lat="42.9687" lon="0.32225">
        <ele>1620</ele>
        <time>2024-11-28T11:15:20Z</time>
      </trkpt>
      <trkpt lat="42.9686" lon="0.32225">
        <ele>1616</ele>
        <time>2024-11-28T11:16:14Z</time>
      </trkpt>
      <trkpt lat="42.96853" lon="0.32217">
        <ele>1613</ele>
        <time>2024-11-28T11:16:26Z</time>
      </trkpt>
      <trkpt lat="42.96846" lon="0.32209">
        <ele>1610</ele>
        <time>2024-11-28T11:16:38Z</time>
      </trkpt>
      <trkpt lat="42.96839" lon="0.32198">
        <ele>1605</ele>
        <time>2024-11-28T11:16:48Z</time>
      </trkpt>
      <trkpt lat="42.96833" lon="0.32188">
        <ele>1604</ele>
        <time>2024-11-28T11:17:00Z</time>
      </trkpt>
      <trkpt lat="42.96821" lon="0.32167">
        <ele>1598</ele>
        <time>2024-11-28T11:17:22Z</time>
      </trkpt>
      <trkpt lat="42.96819" lon="0.32152">
        <ele>1597</ele>
        <time>2024-11-28T11:17:32Z</time>
      </trkpt>
      <trkpt lat="42.96817" lon="0.32139">
        <ele>1596</ele>
        <time>2024-11-28T11:17:44Z</time>
      </trkpt>
      <trkpt lat="42.96814" lon="0.32127">
        <ele>1595</ele>
        <time>2024-11-28T11:17:52Z</time>
      </trkpt>
      <trkpt lat="42.9681" lon="0.32116">
        <ele>1595</ele>
        <time>2024-11-28T11:18:02Z</time>
      </trkpt>
      <trkpt lat="42.96809" lon="0.32103">
        <ele>1597</ele>
        <time>2024-11-28T11:18:18Z</time>
      </trkpt>
      <trkpt lat="42.96803" lon="0.32062">
        <ele>1595</ele>
        <time>2024-11-28T11:18:48Z</time>
      </trkpt>
      <trkpt lat="42.968" lon="0.32048">
        <ele>1595</ele>
        <time>2024-11-28T11:18:58Z</time>
      </trkpt>
      <trkpt lat="42.96799" lon="0.32035">
        <ele>1594</ele>
        <time>2024-11-28T11:19:10Z</time>
      </trkpt>
      <trkpt lat="42.96799" lon="0.3202">
        <ele>1593</ele>
        <time>2024-11-28T11:19:20Z</time>
      </trkpt>
      <trkpt lat="42.96799" lon="0.32007">
        <ele>1590</ele>
        <time>2024-11-28T11:19:28Z</time>
      </trkpt>
      <trkpt lat="42.96797" lon="0.31992">
        <ele>1588</ele>
        <time>2024-11-28T11:19:36Z</time>
      </trkpt>
      <trkpt lat="42.96792" lon="0.31966">
        <ele>1588</ele>
        <time>2024-11-28T11:19:52Z</time>
      </trkpt>
      <trkpt lat="42.96794" lon="0.31951">
        <ele>1585</ele>
        <time>2024-11-28T11:20:02Z</time>
      </trkpt>
      <trkpt lat="42.96794" lon="0.31921">
        <ele>1586</ele>
        <time>2024-11-28T11:20:18Z</time>
      </trkpt>
      <trkpt lat="42.96795" lon="0.31906">
        <ele>1583</ele>
        <time>2024-11-28T11:20:28Z</time>
      </trkpt>
      <trkpt lat="42.96799" lon="0.31895">
        <ele>1582</ele>
        <time>2024-11-28T11:20:42Z</time>
      </trkpt>
      <trkpt lat="42.96802" lon="0.3187">
        <ele>1581</ele>
        <time>2024-11-28T11:21:16Z</time>
      </trkpt>
      <trkpt lat="42.96802" lon="0.31845">
        <ele>1581</ele>
        <time>2024-11-28T11:21:56Z</time>
      </trkpt>
      <trkpt lat="42.96805" lon="0.31831">
        <ele>1578</ele>
        <time>2024-11-28T11:22:06Z</time>
      </trkpt>
      <trkpt lat="42.96806" lon="0.31818">
        <ele>1575</ele>
        <time>2024-11-28T11:22:34Z</time>
      </trkpt>
      <trkpt lat="42.96813" lon="0.31808">
        <ele>1573</ele>
        <time>2024-11-28T11:22:44Z</time>
      </trkpt>
      <trkpt lat="42.96814" lon="0.31793">
        <ele>1573</ele>
        <time>2024-11-28T11:22:57Z</time>
      </trkpt>
      <trkpt lat="42.96814" lon="0.31787">
        <ele>1573</ele>
        <time>2024-11-28T11:23:22Z</time>
      </trkpt>
      <trkpt lat="42.96815" lon="0.31768">
        <ele>1570</ele>
        <time>2024-11-28T11:23:36Z</time>
      </trkpt>
      <trkpt lat="42.96817" lon="0.31755">
        <ele>1568</ele>
        <time>2024-11-28T11:23:44Z</time>
      </trkpt>
      <trkpt lat="42.96816" lon="0.31749">
        <ele>1569</ele>
        <time>2024-11-28T11:23:48Z</time>
      </trkpt>
      <trkpt lat="42.96818" lon="0.31742">
        <ele>1568</ele>
        <time>2024-11-28T11:23:54Z</time>
      </trkpt>
      <trkpt lat="42.96822" lon="0.3173">
        <ele>1562</ele>
        <time>2024-11-28T11:24:40Z</time>
      </trkpt>
      <trkpt lat="42.96826" lon="0.31686">
        <ele>1562</ele>
        <time>2024-11-28T11:25:10Z</time>
      </trkpt>
      <trkpt lat="42.96829" lon="0.3167">
        <ele>1562</ele>
        <time>2024-11-28T11:25:20Z</time>
      </trkpt>
      <trkpt lat="42.96838" lon="0.31647">
        <ele>1557</ele>
        <time>2024-11-28T11:25:40Z</time>
      </trkpt>
      <trkpt lat="42.96838" lon="0.31632">
        <ele>1556</ele>
        <time>2024-11-28T11:25:48Z</time>
      </trkpt>
      <trkpt lat="42.96837" lon="0.31619">
        <ele>1556</ele>
        <time>2024-11-28T11:25:56Z</time>
      </trkpt>
      <trkpt lat="42.96833" lon="0.31608">
        <ele>1553</ele>
        <time>2024-11-28T11:26:04Z</time>
      </trkpt>
      <trkpt lat="42.9683" lon="0.31596">
        <ele>1552</ele>
        <time>2024-11-28T11:26:12Z</time>
      </trkpt>
      <trkpt lat="42.96832" lon="0.31581">
        <ele>1549</ele>
        <time>2024-11-28T11:26:24Z</time>
      </trkpt>
      <trkpt lat="42.96833" lon="0.31566">
        <ele>1546</ele>
        <time>2024-11-28T11:26:34Z</time>
      </trkpt>
      <trkpt lat="42.96826" lon="0.3154">
        <ele>1544</ele>
        <time>2024-11-28T11:26:50Z</time>
      </trkpt>
      <trkpt lat="42.9682" lon="0.3153">
        <ele>1543</ele>
        <time>2024-11-28T11:27:00Z</time>
      </trkpt>
      <trkpt lat="42.96819" lon="0.31517">
        <ele>1540</ele>
        <time>2024-11-28T11:27:10Z</time>
      </trkpt>
      <trkpt lat="42.96815" lon="0.31505">
        <ele>1538</ele>
        <time>2024-11-28T11:27:18Z</time>
      </trkpt>
      <trkpt lat="42.96812" lon="0.31494">
        <ele>1535</ele>
        <time>2024-11-28T11:27:26Z</time>
      </trkpt>
      <trkpt lat="42.96807" lon="0.31482">
        <ele>1535</ele>
        <time>2024-11-28T11:27:34Z</time>
      </trkpt>
      <trkpt lat="42.96805" lon="0.31468">
        <ele>1534</ele>
        <time>2024-11-28T11:27:44Z</time>
      </trkpt>
      <trkpt lat="42.968" lon="0.31456">
        <ele>1532</ele>
        <time>2024-11-28T11:27:54Z</time>
      </trkpt>
      <trkpt lat="42.96794" lon="0.31444">
        <ele>1527</ele>
        <time>2024-11-28T11:28:04Z</time>
      </trkpt>
      <trkpt lat="42.96791" lon="0.31431">
        <ele>1527</ele>
        <time>2024-11-28T11:28:12Z</time>
      </trkpt>
      <trkpt lat="42.96785" lon="0.31422">
        <ele>1527</ele>
        <time>2024-11-28T11:28:22Z</time>
      </trkpt>
      <trkpt lat="42.96778" lon="0.3141">
        <ele>1525</ele>
        <time>2024-11-28T11:28:30Z</time>
      </trkpt>
      <trkpt lat="42.96755" lon="0.31381">
        <ele>1520</ele>
        <time>2024-11-28T11:29:00Z</time>
      </trkpt>
      <trkpt lat="42.96746" lon="0.31376">
        <ele>1520</ele>
        <time>2024-11-28T11:29:10Z</time>
      </trkpt>
      <trkpt lat="42.96737" lon="0.31368">
        <ele>1520</ele>
        <time>2024-11-28T11:29:20Z</time>
      </trkpt>
      <trkpt lat="42.96728" lon="0.31366">
        <ele>1521</ele>
        <time>2024-11-28T11:29:32Z</time>
      </trkpt>
      <trkpt lat="42.96708" lon="0.31361">
        <ele>1519</ele>
        <time>2024-11-28T11:29:58Z</time>
      </trkpt>
      <trkpt lat="42.96699" lon="0.31358">
        <ele>1519</ele>
        <time>2024-11-28T11:30:06Z</time>
      </trkpt>
      <trkpt lat="42.9669" lon="0.3136">
        <ele>1520</ele>
        <time>2024-11-28T11:30:14Z</time>
      </trkpt>
      <trkpt lat="42.96681" lon="0.31359">
        <ele>1522</ele>
        <time>2024-11-28T11:30:22Z</time>
      </trkpt>
      <trkpt lat="42.96672" lon="0.31353">
        <ele>1526</ele>
        <time>2024-11-28T11:30:52Z</time>
      </trkpt>
      <trkpt lat="42.96652" lon="0.31324">
        <ele>1525</ele>
        <time>2024-11-28T11:31:32Z</time>
      </trkpt>
      <trkpt lat="42.9665" lon="0.31321">
        <ele>1523</ele>
        <time>2024-11-28T11:31:58Z</time>
      </trkpt>
      <trkpt lat="42.96639" lon="0.31308">
        <ele>1519</ele>
        <time>2024-11-28T11:32:12Z</time>
      </trkpt>
      <trkpt lat="42.96616" lon="0.31282">
        <ele>1511</ele>
        <time>2024-11-28T11:32:42Z</time>
      </trkpt>
      <trkpt lat="42.96584" lon="0.31226">
        <ele>1505</ele>
        <time>2024-11-28T11:33:10Z</time>
      </trkpt>
      <trkpt lat="42.96578" lon="0.31208">
        <ele>1492.4</ele>
        <time>2024-11-28T05:35:24Z</time>
      </trkpt>
      <trkpt lat="42.96571" lon="0.31171">
        <ele>1486</ele>
        <time>2024-11-28T05:35:24Z</time>
      </trkpt>
      <trkpt lat="42.96558" lon="0.31161">
        <ele>1482.4</ele>
        <time>2024-11-28T05:35:24Z</time>
      </trkpt>
      <trkpt lat="42.96568" lon="0.31142">
        <ele>1481.3</ele>
        <time>2024-11-28T05:35:24Z</time>
      </trkpt>
      <trkpt lat="42.96555" lon="0.3113">
        <ele>1477.3</ele>
        <time>2024-11-28T05:35:24Z</time>
      </trkpt>
      <trkpt lat="42.96543" lon="0.31112">
        <ele>1471.9</ele>
        <time>2024-11-28T05:35:24Z</time>
      </trkpt>
      <trkpt lat="42.96555" lon="0.31094">
        <ele>1470.8</ele>
        <time>2024-11-28T05:35:24Z</time>
      </trkpt>
      <trkpt lat="42.96551" lon="0.31076">
        <ele>1467.4</ele>
        <time>2024-11-28T05:35:24Z</time>
      </trkpt>
      <trkpt lat="42.96537" lon="0.31061">
        <ele>1462.7</ele>
        <time>2024-11-28T05:35:24Z</time>
      </trkpt>
      <trkpt lat="42.9651" lon="0.31068">
        <ele>1459.4</ele>
        <time>2024-11-28T05:35:24Z</time>
      </trkpt>
      <trkpt lat="42.96497" lon="0.3106">
        <ele>1456</ele>
        <time>2024-11-28T05:35:24Z</time>
      </trkpt>
      <trkpt lat="42.96483" lon="0.31058">
        <ele>1453.3</ele>
        <time>2024-11-28T05:35:24Z</time>
      </trkpt>
      <trkpt lat="42.9647" lon="0.31047">
        <ele>1449.3</ele>
        <time>2024-11-28T05:35:24Z</time>
      </trkpt>
      <trkpt lat="42.96463" lon="0.31027">
        <ele>1445.3</ele>
        <time>2024-11-28T05:35:24Z</time>
      </trkpt>
      <trkpt lat="42.9645" lon="0.31017">
        <ele>1442.7</ele>
        <time>2024-11-28T05:35:24Z</time>
      </trkpt>
      <trkpt lat="42.96423" lon="0.31017">
        <ele>1437.9</ele>
        <time>2024-11-28T05:35:24Z</time>
      </trkpt>
      <trkpt lat="42.96395" lon="0.30994">
        <ele>1432.3</ele>
        <time>2024-11-28T05:35:24Z</time>
      </trkpt>
      <trkpt lat="42.96355" lon="0.30971">
        <ele>1426.2</ele>
        <time>2024-11-28T05:35:24Z</time>
      </trkpt>
      <trkpt lat="42.96344" lon="0.30952">
        <ele>1424.2</ele>
        <time>2024-11-28T05:35:24Z</time>
      </trkpt>
      <trkpt lat="42.96315" lon="0.30934">
        <ele>1421.2</ele>
        <time>2024-11-28T05:35:24Z</time>
      </trkpt>
      <trkpt lat="42.96282" lon="0.30935">
        <ele>1505</ele>
        <time>2024-11-28T11:33:10Z</time>
      </trkpt>
    </trkseg>
  </trk>
</gpx>